Wetterdaten: Dienstag, 18.03.2014
Datum Zeit Temp. Aussen +5cm Feuchte Auss Luftdruck Regen Sonnenschein Regendauer UV Solar Windben
18.03.2014 00:00 7,6 C 6,1 C 85 % 1019,0 hPa 0,0 l/m 0 min 0 min 0,0 UV-I 0 W/m 0,0 km/h (0 Bft)
18.03.2014 00:02 7,6 C 6,1 C 85 % 1019,0 hPa 0,0 l/m 0 min 0 min 0,0 UV-I 0 W/m 0,0 km/h (0 Bft)
18.03.2014 00:06 7,6 C 6,1 C 84 % 1019,0 hPa 0,0 l/m 0 min 0 min 0,0 UV-I 0 W/m 0,0 km/h (0 Bft)
18.03.2014 00:08 7,7 C 6,1 C 84 % 1018,9 hPa 0,0 l/m 0 min 0 min 0,0 UV-I 0 W/m 0,0 km/h (0 Bft)
18.03.2014 00:10 7,7 C 6,1 C 84 % 1018,9 hPa 0,0 l/m 0 min 0 min 0,0 UV-I 0 W/m 0,0 km/h (0 Bft)
18.03.2014 00:12 7,7 C 6,1 C 84 % 1018,9 hPa 0,0 l/m 0 min 0 min 0,0 UV-I 0 W/m 0,0 km/h (0 Bft)
18.03.2014 00:14 7,8 C 6,1 C 84 % 1019,0 hPa 0,0 l/m 0 min 0 min 0,0 UV-I 0 W/m 0,0 km/h (0 Bft)
18.03.2014 00:16 7,8 C 6,1 C 83 % 1018,9 hPa 0,0 l/m 0 min 0 min 0,0 UV-I 0 W/m 0,0 km/h (0 Bft)
18.03.2014 00:18 7,9 C 6,7 C 83 % 1018,8 hPa 0,0 l/m 0 min 0 min 0,0 UV-I 0 W/m 0,0 km/h (0 Bft)
18.03.2014 00:20 7,9 C 6,7 C 83 % 1018,8 hPa 0,0 l/m 0 min 0 min 0,0 UV-I 0 W/m 0,0 km/h (0 Bft)
18.03.2014 00:22 8,0 C 6,7 C 83 % 1018,8 hPa 0,0 l/m 0 min 0 min 0,0 UV-I 0 W/m 0,0 km/h (0 Bft)
18.03.2014 00:24 8,1 C 6,7 C 82 % 1018,8 hPa 0,0 l/m 0 min 0 min 0,0 UV-I 0 W/m 0,0 km/h (0 Bft)
18.03.2014 00:26 8,1 C 6,7 C 82 % 1018,8 hPa 0,0 l/m 0 min 0 min 0,0 UV-I 0 W/m 0,0 km/h (0 Bft)
18.03.2014 00:28 8,2 C 6,7 C 82 % 1018,8 hPa 0,0 l/m 0 min 0 min 0,0 UV-I 0 W/m 0,0 km/h (0 Bft)
18.03.2014 00:30 8,2 C 6,7 C 82 % 1018,8 hPa 0,0 l/m 0 min 0 min 0,0 UV-I 0 W/m 0,0 km/h (0 Bft)
18.03.2014 00:32 8,3 C 6,7 C 82 % 1018,7 hPa 0,0 l/m 0 min 0 min 0,0 UV-I 0 W/m 0,0 km/h (0 Bft)
18.03.2014 00:34 8,3 C 6,7 C 81 % 1018,7 hPa 0,0 l/m 0 min 0 min 0,0 UV-I 0 W/m 0,0 km/h (0 Bft)
18.03.2014 00:36 8,3 C 6,7 C 81 % 1018,7 hPa 0,0 l/m 0 min 0 min 0,0 UV-I 0 W/m 0,0 km/h (0 Bft)
18.03.2014 00:38 8,3 C 6,7 C 81 % 1018,7 hPa 0,0 l/m 0 min 0 min 0,0 UV-I 0 W/m 0,0 km/h (0 Bft)
18.03.2014 00:40 8,3 C 6,7 C 82 % 1018,7 hPa 0,0 l/m 0 min 0 min 0,0 UV-I 0 W/m 0,0 km/h (0 Bft)
18.03.2014 00:42 8,3 C 6,7 C 82 % 1018,7 hPa 0,0 l/m 0 min 0 min 0,0 UV-I 0 W/m 0,0 km/h (0 Bft)
18.03.2014 00:44 8,3 C 6,7 C 81 % 1018,7 hPa 0,0 l/m 0 min 0 min 0,0 UV-I 0 W/m 0,0 km/h (0 Bft)
18.03.2014 00:46 8,4 C 6,7 C 82 % 1018,7 hPa 0,0 l/m 0 min 0 min 0,0 UV-I 0 W/m 0,0 km/h (0 Bft)
18.03.2014 00:48 8,4 C 6,7 C 81 % 1018,7 hPa 0,0 l/m 0 min 0 min 0,0 UV-I 0 W/m 0,0 km/h (0 Bft)
18.03.2014 00:50 8,4 C 6,7 C 81 % 1018,7 hPa 0,0 l/m 0 min 0 min 0,0 UV-I 0 W/m 0,0 km/h (0 Bft)
18.03.2014 00:52 8,4 C 6,7 C 81 % 1018,7 hPa 0,0 l/m 0 min 0 min 0,0 UV-I 0 W/m 0,0 km/h (0 Bft)
18.03.2014 00:54 8,4 C 6,7 C 81 % 1018,7 hPa 0,0 l/m 0 min 0 min 0,0 UV-I 0 W/m 0,0 km/h (0 Bft)
18.03.2014 00:56 8,4 C 6,7 C 82 % 1018,7 hPa 0,0 l/m 0 min 0 min 0,0 UV-I 0 W/m 0,0 km/h (0 Bft)
18.03.2014 00:58 8,4 C 6,7 C 82 % 1018,7 hPa 0,0 l/m 0 min 0 min 0,0 UV-I 0 W/m 0,0 km/h (0 Bft)
18.03.2014 01:00 8,3 C 6,7 C 82 % 1018,6 hPa 0,0 l/m 0 min 0 min 0,0 UV-I 0 W/m 0,0 km/h (0 Bft)
18.03.2014 01:03 8,3 C 6,7 C 82 % 1018,6 hPa 0,0 l/m 0 min 0 min 0,0 UV-I 0 W/m 0,0 km/h (0 Bft)
18.03.2014 01:04 8,3 C 6,7 C 82 % 1018,6 hPa 0,0 l/m 0 min 0 min 0,0 UV-I 0 W/m 0,0 km/h (0 Bft)
18.03.2014 01:06 8,4 C 6,7 C 82 % 1018,6 hPa 0,0 l/m 0 min 0 min 0,0 UV-I 0 W/m 0,0 km/h (0 Bft)
18.03.2014 01:08 8,4 C 6,7 C 82 % 1018,6 hPa 0,0 l/m 0 min 0 min 0,0 UV-I 0 W/m 0,0 km/h (0 Bft)
18.03.2014 01:10 8,4 C 6,7 C 82 % 1018,6 hPa 0,0 l/m 0 min 0 min 0,0 UV-I 0 W/m 0,0 km/h (0 Bft)
18.03.2014 01:12 8,4 C 6,7 C 82 % 1018,6 hPa 0,0 l/m 0 min 0 min 0,0 UV-I 0 W/m 0,0 km/h (0 Bft)
18.03.2014 01:14 8,4 C 6,7 C 82 % 1018,6 hPa 0,0 l/m 0 min 0 min 0,0 UV-I 0 W/m 0,0 km/h (0 Bft)
18.03.2014 01:16 8,4 C 6,7 C 82 % 1018,6 hPa 0,0 l/m 0 min 0 min 0,0 UV-I 0 W/m 0,0 km/h (0 Bft)
18.03.2014 01:18 8,4 C 7,2 C 82 % 1018,7 hPa 0,0 l/m 0 min 0 min 0,0 UV-I 0 W/m 0,0 km/h (0 Bft)
18.03.2014 01:20 8,4 C 7,2 C 82 % 1018,7 hPa 0,0 l/m 0 min 0 min 0,0 UV-I 0 W/m 0,0 km/h (0 Bft)
18.03.2014 01:22 8,4 C 7,2 C 82 % 1018,7 hPa 0,0 l/m 0 min 0 min 0,0 UV-I 0 W/m 0,0 km/h (0 Bft)
18.03.2014 01:24 8,5 C 7,2 C 82 % 1018,6 hPa 0,0 l/m 0 min 0 min 0,0 UV-I 0 W/m 0,0 km/h (0 Bft)
18.03.2014 01:26 8,5 C 7,2 C 82 % 1018,6 hPa 0,0 l/m 0 min 0 min 0,0 UV-I 0 W/m 0,0 km/h (0 Bft)
18.03.2014 01:28 8,6 C 7,2 C 81 % 1018,6 hPa 0,0 l/m 0 min 0 min 0,0 UV-I 0 W/m 0,0 km/h (0 Bft)
18.03.2014 01:30 8,6 C 7,2 C 81 % 1018,7 hPa 0,0 l/m 0 min 0 min 0,0 UV-I 0 W/m 0,0 km/h (0 Bft)
18.03.2014 01:32 8,6 C 7,2 C 81 % 1018,7 hPa 0,0 l/m 0 min 0 min 0,0 UV-I 0 W/m 0,0 km/h (0 Bft)
18.03.2014 01:34 8,6 C 7,2 C 81 % 1018,6 hPa 0,0 l/m 0 min 0 min 0,0 UV-I 0 W/m 0,0 km/h (0 Bft)
18.03.2014 01:36 8,6 C 7,2 C 81 % 1018,6 hPa 0,0 l/m 0 min 0 min 0,0 UV-I 0 W/m 0,0 km/h (0 Bft)
18.03.2014 01:38 8,7 C 7,2 C 80 % 1018,6 hPa 0,0 l/m 0 min 0 min 0,0 UV-I 0 W/m 0,0 km/h (0 Bft)
18.03.2014 01:40 8,7 C 7,2 C 80 % 1018,6 hPa 0,0 l/m 0 min 0 min 0,0 UV-I 0 W/m 0,0 km/h (0 Bft)
18.03.2014 01:42 8,7 C 7,2 C 80 % 1018,5 hPa 0,0 l/m 0 min 0 min 0,0 UV-I 0 W/m 0,0 km/h (0 Bft)
18.03.2014 01:44 8,7 C 7,2 C 80 % 1018,5 hPa 0,0 l/m 0 min 0 min 0,0 UV-I 0 W/m 0,0 km/h (0 Bft)
18.03.2014 01:46 8,7 C 7,2 C 80 % 1018,5 hPa 0,0 l/m 0 min 0 min 0,0 UV-I 0 W/m 0,0 km/h (0 Bft)
18.03.2014 01:48 8,7 C 7,2 C 80 % 1018,4 hPa 0,0 l/m 0 min 0 min 0,0 UV-I 0 W/m 0,0 km/h (0 Bft)
18.03.2014 01:50 8,7 C 7,2 C 80 % 1018,5 hPa 0,0 l/m 0 min 0 min 0,0 UV-I 0 W/m 0,0 km/h (0 Bft)
18.03.2014 01:52 8,7 C 7,2 C 80 % 1018,4 hPa 0,0 l/m 0 min 0 min 0,0 UV-I 0 W/m 0,0 km/h (0 Bft)
18.03.2014 01:54 8,7 C 7,2 C 80 % 1018,4 hPa 0,0 l/m 0 min 0 min 0,0 UV-I 0 W/m 5,1 km/h (1 Bft)
18.03.2014 01:56 8,7 C 7,2 C 80 % 1018,3 hPa 0,0 l/m 0 min 0 min 0,0 UV-I 0 W/m 0,0 km/h (0 Bft)
18.03.2014 01:58 8,7 C 7,2 C 80 % 1018,3 hPa 0,0 l/m 0 min 0 min 0,0 UV-I 0 W/m 2,6 km/h (1 Bft)
18.03.2014 02:00 8,7 C 7,2 C 80 % 1018,2 hPa 0,0 l/m 0 min 0 min 0,0 UV-I 0 W/m 0,0 km/h (0 Bft)
18.03.2014 02:02 8,7 C 7,2 C 80 % 1018,2 hPa 0,0 l/m 0 min 0 min 0,0 UV-I 0 W/m 0,0 km/h (0 Bft)
18.03.2014 02:06 8,7 C 7,2 C 80 % 1018,2 hPa 0,0 l/m 0 min 0 min 0,0 UV-I 0 W/m 2,6 km/h (1 Bft)
18.03.2014 02:08 8,8 C 7,2 C 80 % 1018,2 hPa 0,0 l/m 0 min 0 min 0,0 UV-I 0 W/m 0,0 km/h (0 Bft)
18.03.2014 02:10 8,8 C 7,2 C 80 % 1018,2 hPa 0,0 l/m 0 min 0 min 0,0 UV-I 0 W/m 0,0 km/h (0 Bft)
18.03.2014 02:12 8,8 C 7,2 C 80 % 1018,2 hPa 0,0 l/m 0 min 0 min 0,0 UV-I 0 W/m 0,0 km/h (0 Bft)
18.03.2014 02:14 8,8 C 7,2 C 80 % 1018,2 hPa 0,0 l/m 0 min 0 min 0,0 UV-I 0 W/m 0,0 km/h (0 Bft)
18.03.2014 02:16 8,8 C 7,2 C 80 % 1018,1 hPa 0,0 l/m 0 min 0 min 0,0 UV-I 0 W/m 0,0 km/h (0 Bft)
18.03.2014 02:18 8,9 C 7,2 C 80 % 1018,1 hPa 0,0 l/m 0 min 0 min 0,0 UV-I 0 W/m 0,0 km/h (0 Bft)
18.03.2014 02:20 8,8 C 7,2 C 79 % 1018,1 hPa 0,0 l/m 0 min 0 min 0,0 UV-I 0 W/m 0,0 km/h (0 Bft)
18.03.2014 02:22 8,9 C 7,2 C 79 % 1018,0 hPa 0,0 l/m 0 min 0 min 0,0 UV-I 0 W/m 0,0 km/h (0 Bft)
18.03.2014 02:24 8,9 C 7,2 C 79 % 1018,1 hPa 0,0 l/m 0 min 0 min 0,0 UV-I 0 W/m 0,0 km/h (0 Bft)
18.03.2014 02:26 8,9 C 7,2 C 79 % 1018,0 hPa 0,0 l/m 0 min 0 min 0,0 UV-I 0 W/m 0,0 km/h (0 Bft)
18.03.2014 02:28 8,8 C 7,2 C 79 % 1018,0 hPa 0,0 l/m 0 min 0 min 0,0 UV-I 0 W/m 0,0 km/h (0 Bft)
18.03.2014 02:30 8,8 C 7,2 C 79 % 1017,9 hPa 0,0 l/m 0 min 0 min 0,0 UV-I 0 W/m 0,0 km/h (0 Bft)
18.03.2014 02:32 8,8 C 7,2 C 79 % 1017,9 hPa 0,0 l/m 0 min 0 min 0,0 UV-I 0 W/m 7,7 km/h (2 Bft)
18.03.2014 02:34 8,8 C 7,2 C 79 % 1017,9 hPa 0,0 l/m 0 min 0 min 0,0 UV-I 0 W/m 0,0 km/h (0 Bft)
18.03.2014 02:36 8,8 C 7,2 C 80 % 1017,9 hPa 0,0 l/m 0 min 0 min 0,0 UV-I 0 W/m 0,0 km/h (0 Bft)
18.03.2014 02:38 8,8 C 7,2 C 80 % 1017,9 hPa 0,0 l/m 0 min 0 min 0,0 UV-I 0 W/m 0,0 km/h (0 Bft)
18.03.2014 02:40 8,8 C 7,2 C 80 % 1017,9 hPa 0,0 l/m 0 min 0 min 0,0 UV-I 0 W/m 0,0 km/h (0 Bft)
18.03.2014 02:42 8,8 C 7,2 C 80 % 1017,9 hPa 0,0 l/m 0 min 0 min 0,0 UV-I 0 W/m 0,0 km/h (0 Bft)
18.03.2014 02:44 8,9 C 7,2 C 79 % 1017,9 hPa 0,0 l/m 0 min 0 min 0,0 UV-I 0 W/m 0,0 km/h (0 Bft)
18.03.2014 02:46 8,9 C 7,2 C 79 % 1017,8 hPa 0,0 l/m 0 min 0 min 0,0 UV-I 0 W/m 0,0 km/h (0 Bft)
18.03.2014 02:48 8,9 C 7,2 C 79 % 1017,8 hPa 0,0 l/m 0 min 0 min 0,0 UV-I 0 W/m 0,0 km/h (0 Bft)
18.03.2014 02:50 8,9 C 7,2 C 79 % 1017,7 hPa 0,0 l/m 0 min 0 min 0,0 UV-I 0 W/m 0,0 km/h (0 Bft)
18.03.2014 02:52 8,9 C 7,2 C 79 % 1017,6 hPa 0,0 l/m 0 min 0 min 0,0 UV-I 0 W/m 0,0 km/h (0 Bft)
18.03.2014 02:54 8,9 C 7,2 C 79 % 1017,6 hPa 0,0 l/m 0 min 0 min 0,0 UV-I 0 W/m 0,0 km/h (0 Bft)
18.03.2014 02:56 8,9 C 7,2 C 79 % 1017,6 hPa 0,0 l/m 0 min 0 min 0,0 UV-I 0 W/m 0,0 km/h (0 Bft)
18.03.2014 02:58 8,9 C 7,2 C 79 % 1017,7 hPa 0,0 l/m 0 min 0 min 0,0 UV-I 0 W/m 0,0 km/h (0 Bft)
18.03.2014 03:00 8,9 C 7,2 C 80 % 1017,8 hPa 0,0 l/m 0 min 0 min 0,0 UV-I 0 W/m 0,0 km/h (0 Bft)
18.03.2014 03:02 8,9 C 7,2 C 80 % 1017,8 hPa 0,0 l/m 0 min 0 min 0,0 UV-I 0 W/m 0,0 km/h (0 Bft)
18.03.2014 03:06 8,9 C 7,8 C 81 % 1017,6 hPa 0,0 l/m 0 min 0 min 0,0 UV-I 0 W/m 2,6 km/h (1 Bft)
18.03.2014 03:08 9,0 C 7,8 C 82 % 1017,4 hPa 0,0 l/m 0 min 0 min 0,0 UV-I 0 W/m 0,0 km/h (0 Bft)
18.03.2014 03:10 9,0 C 7,8 C 82 % 1017,4 hPa 0,0 l/m 0 min 0 min 0,0 UV-I 0 W/m 10,3 km/h (2 Bft)
18.03.2014 03:12 9,0 C 7,2 C 82 % 1017,3 hPa 0,0 l/m 0 min 0 min 0,0 UV-I 0 W/m 2,6 km/h (1 Bft)
18.03.2014 03:14 9,0 C 7,2 C 83 % 1017,3 hPa 0,0 l/m 0 min 0 min 0,0 UV-I 0 W/m 7,7 km/h (2 Bft)
18.03.2014 03:16 9,0 C 7,8 C 84 % 1017,3 hPa 0,0 l/m 0 min 0 min 0,0 UV-I 0 W/m 0,0 km/h (0 Bft)
18.03.2014 03:18 9,0 C 7,8 C 84 % 1017,2 hPa 0,0 l/m 0 min 0 min 0,0 UV-I 0 W/m 5,1 km/h (1 Bft)
18.03.2014 03:20 9,0 C 7,8 C 84 % 1017,3 hPa 0,0 l/m 0 min 0 min 0,0 UV-I 0 W/m 0,0 km/h (0 Bft)
18.03.2014 03:22 9,0 C 7,8 C 85 % 1017,3 hPa 0,0 l/m 0 min 0 min 0,0 UV-I 0 W/m 5,1 km/h (1 Bft)
18.03.2014 03:24 9,0 C 7,8 C 85 % 1017,2 hPa 0,0 l/m 0 min 0 min 0,0 UV-I 0 W/m 7,7 km/h (2 Bft)
18.03.2014 03:26 9,0 C 7,8 C 86 % 1017,2 hPa 0,0 l/m 0 min 0 min 0,0 UV-I 0 W/m 0,0 km/h (0 Bft)
18.03.2014 03:28 9,0 C 7,8 C 86 % 1017,2 hPa 0,0 l/m 0 min 0 min 0,0 UV-I 0 W/m 7,7 km/h (2 Bft)
18.03.2014 03:30 9,0 C 7,8 C 86 % 1017,1 hPa 0,0 l/m 0 min 0 min 0,0 UV-I 0 W/m 5,1 km/h (1 Bft)
18.03.2014 03:32 9,0 C 7,8 C 86 % 1017,1 hPa 0,0 l/m 0 min 0 min 0,0 UV-I 0 W/m 0,0 km/h (0 Bft)
18.03.2014 03:34 8,9 C 7,8 C 86 % 1017,0 hPa 0,0 l/m 0 min 0 min 0,0 UV-I 0 W/m 0,0 km/h (0 Bft)
18.03.2014 03:36 8,9 C 7,8 C 87 % 1017,1 hPa 0,0 l/m 0 min 0 min 0,0 UV-I 0 W/m 5,1 km/h (1 Bft)
18.03.2014 03:38 8,9 C 7,8 C 87 % 1017,2 hPa 0,0 l/m 0 min 0 min 0,0 UV-I 0 W/m 0,0 km/h (0 Bft)
18.03.2014 03:40 8,9 C 7,8 C 87 % 1017,2 hPa 0,0 l/m 0 min 0 min 0,0 UV-I 0 W/m 2,6 km/h (1 Bft)
18.03.2014 03:42 8,9 C 7,8 C 87 % 1017,2 hPa 0,0 l/m 0 min 0 min 0,0 UV-I 0 W/m 0,0 km/h (0 Bft)
18.03.2014 03:44 8,9 C 7,8 C 87 % 1017,1 hPa 0,0 l/m 0 min 0 min 0,0 UV-I 0 W/m 0,0 km/h (0 Bft)
18.03.2014 03:46 8,9 C 7,2 C 88 % 1017,0 hPa 0,0 l/m 0 min 0 min 0,0 UV-I 0 W/m 0,0 km/h (0 Bft)
18.03.2014 03:48 8,8 C 7,2 C 88 % 1016,9 hPa 0,0 l/m 0 min 0 min 0,0 UV-I 0 W/m 0,0 km/h (0 Bft)
18.03.2014 03:50 8,8 C 7,2 C 88 % 1016,9 hPa 0,0 l/m 0 min 0 min 0,0 UV-I 0 W/m 2,6 km/h (1 Bft)
18.03.2014 03:52 8,8 C 7,2 C 88 % 1016,8 hPa 0,0 l/m 0 min 0 min 0,0 UV-I 0 W/m 0,0 km/h (0 Bft)
18.03.2014 03:54 8,7 C 7,2 C 88 % 1016,9 hPa 0,0 l/m 0 min 0 min 0,0 UV-I 0 W/m 0,0 km/h (0 Bft)
18.03.2014 03:56 8,7 C 7,2 C 88 % 1016,8 hPa 0,0 l/m 0 min 0 min 0,0 UV-I 0 W/m 7,7 km/h (2 Bft)
18.03.2014 03:58 8,7 C 7,2 C 89 % 1016,7 hPa 0,0 l/m 0 min 0 min 0,0 UV-I 0 W/m 5,1 km/h (1 Bft)
18.03.2014 04:00 8,8 C 7,2 C 89 % 1016,7 hPa 0,0 l/m 0 min 0 min 0,0 UV-I 0 W/m 2,6 km/h (1 Bft)
18.03.2014 04:06 8,8 C 7,2 C 89 % 1016,6 hPa 0,0 l/m 0 min 0 min 0,0 UV-I 0 W/m 5,1 km/h (1 Bft)
18.03.2014 04:07 8,8 C 7,2 C 90 % 1016,6 hPa 0,0 l/m 0 min 0 min 0,0 UV-I 0 W/m 5,1 km/h (1 Bft)
18.03.2014 04:10 8,8 C 7,2 C 90 % 1016,5 hPa 0,0 l/m 0 min 0 min 0,0 UV-I 0 W/m 5,1 km/h (1 Bft)
18.03.2014 04:12 8,8 C 7,8 C 90 % 1016,5 hPa 0,0 l/m 0 min 0 min 0,0 UV-I 0 W/m 10,3 km/h (2 Bft)
18.03.2014 04:14 8,8 C 7,8 C 90 % 1016,6 hPa 0,0 l/m 0 min 0 min 0,0 UV-I 0 W/m 10,3 km/h (2 Bft)
18.03.2014 04:16 8,9 C 7,8 C 90 % 1016,5 hPa 0,0 l/m 0 min 0 min 0,0 UV-I 0 W/m 7,7 km/h (2 Bft)
18.03.2014 04:18 8,9 C 7,8 C 91 % 1016,4 hPa 0,0 l/m 0 min 0 min 0,0 UV-I 0 W/m 10,3 km/h (2 Bft)
18.03.2014 04:20 8,9 C 7,8 C 91 % 1016,4 hPa 0,0 l/m 0 min 0 min 0,0 UV-I 0 W/m 0,0 km/h (0 Bft)
18.03.2014 04:22 8,9 C 7,8 C 91 % 1016,5 hPa 0,0 l/m 0 min 0 min 0,0 UV-I 0 W/m 0,0 km/h (0 Bft)
18.03.2014 04:24 8,9 C 7,8 C 91 % 1016,5 hPa 0,0 l/m 0 min 0 min 0,0 UV-I 0 W/m 2,6 km/h (1 Bft)
18.03.2014 04:26 8,9 C 7,8 C 91 % 1016,6 hPa 0,0 l/m 0 min 0 min 0,0 UV-I 0 W/m 0,0 km/h (0 Bft)
18.03.2014 04:28 8,9 C 7,8 C 91 % 1016,4 hPa 0,0 l/m 0 min 0 min 0,0 UV-I 0 W/m 7,7 km/h (2 Bft)
18.03.2014 04:30 9,0 C 7,8 C 91 % 1016,4 hPa 0,0 l/m 0 min 0 min 0,0 UV-I 0 W/m 0,0 km/h (0 Bft)
18.03.2014 04:32 9,0 C 7,8 C 91 % 1016,3 hPa 0,0 l/m 0 min 0 min 0,0 UV-I 0 W/m 0,0 km/h (0 Bft)
18.03.2014 04:34 9,0 C 7,8 C 91 % 1016,3 hPa 0,0 l/m 0 min 0 min 0,0 UV-I 0 W/m 2,6 km/h (1 Bft)
18.03.2014 04:36 9,0 C 7,8 C 91 % 1016,3 hPa 0,0 l/m 0 min 0 min 0,0 UV-I 0 W/m 2,6 km/h (1 Bft)
18.03.2014 04:38 9,0 C 7,8 C 91 % 1016,3 hPa 0,0 l/m 0 min 0 min 0,0 UV-I 0 W/m 0,0 km/h (0 Bft)
18.03.2014 04:40 9,0 C 7,8 C 91 % 1016,3 hPa 0,0 l/m 0 min 0 min 0,0 UV-I 0 W/m 2,6 km/h (1 Bft)
18.03.2014 04:42 9,0 C 7,8 C 91 % 1016,3 hPa 0,0 l/m 0 min 0 min 0,0 UV-I 0 W/m 2,6 km/h (1 Bft)
18.03.2014 04:44 9,0 C 7,8 C 91 % 1016,2 hPa 0,0 l/m 0 min 0 min 0,0 UV-I 0 W/m 0,0 km/h (0 Bft)
18.03.2014 04:46 9,0 C 7,8 C 91 % 1016,1 hPa 0,0 l/m 0 min 0 min 0,0 UV-I 0 W/m 5,1 km/h (1 Bft)
18.03.2014 04:48 9,0 C 7,8 C 91 % 1016,2 hPa 0,0 l/m 0 min 0 min 0,0 UV-I 0 W/m 5,1 km/h (1 Bft)
18.03.2014 04:50 9,0 C 7,8 C 91 % 1016,2 hPa 0,0 l/m 0 min 0 min 0,0 UV-I 0 W/m 2,6 km/h (1 Bft)
18.03.2014 04:52 9,0 C 7,8 C 91 % 1016,2 hPa 0,0 l/m 0 min 0 min 0,0 UV-I 0 W/m 2,6 km/h (1 Bft)
18.03.2014 04:54 9,0 C 7,8 C 91 % 1016,1 hPa 0,0 l/m 0 min 0 min 0,0 UV-I 0 W/m 2,6 km/h (1 Bft)
18.03.2014 04:56 9,0 C 7,8 C 91 % 1016,1 hPa 0,0 l/m 0 min 0 min 0,0 UV-I 0 W/m 0,0 km/h (0 Bft)
18.03.2014 04:58 9,0 C 7,8 C 91 % 1016,1 hPa 0,0 l/m 0 min 0 min 0,0 UV-I 0 W/m 0,0 km/h (0 Bft)
18.03.2014 05:00 9,0 C 7,8 C 91 % 1016,1 hPa 0,0 l/m 0 min 0 min 0,0 UV-I 0 W/m 0,0 km/h (0 Bft)
18.03.2014 05:02 8,9 C 7,8 C 91 % 1016,1 hPa 0,0 l/m 0 min 0 min 0,0 UV-I 0 W/m 0,0 km/h (0 Bft)
18.03.2014 05:06 8,9 C 7,8 C 91 % 1016,0 hPa 0,0 l/m 0 min 0 min 0,0 UV-I 0 W/m 0,0 km/h (0 Bft)
18.03.2014 05:08 8,9 C 7,8 C 91 % 1016,0 hPa 0,0 l/m 0 min 0 min 0,0 UV-I 0 W/m 0,0 km/h (0 Bft)
18.03.2014 05:10 8,8 C 7,8 C 91 % 1016,0 hPa 0,0 l/m 0 min 0 min 0,0 UV-I 0 W/m 2,6 km/h (1 Bft)
18.03.2014 05:12 8,8 C 7,8 C 91 % 1016,1 hPa 0,0 l/m 0 min 0 min 0,0 UV-I 0 W/m 0,0 km/h (0 Bft)
18.03.2014 05:14 8,9 C 7,8 C 91 % 1016,1 hPa 0,0 l/m 0 min 0 min 0,0 UV-I 0 W/m 0,0 km/h (0 Bft)
18.03.2014 05:16 8,9 C 7,8 C 91 % 1016,1 hPa 0,0 l/m 0 min 0 min 0,0 UV-I 0 W/m 2,6 km/h (1 Bft)
18.03.2014 05:18 8,9 C 7,8 C 91 % 1016,1 hPa 0,0 l/m 0 min 0 min 0,0 UV-I 0 W/m 2,6 km/h (1 Bft)
18.03.2014 05:20 8,9 C 7,8 C 91 % 1016,1 hPa 0,0 l/m 0 min 0 min 0,0 UV-I 0 W/m 0,0 km/h (0 Bft)
18.03.2014 05:22 8,9 C 7,8 C 91 % 1015,9 hPa 0,0 l/m 0 min 0 min 0,0 UV-I 0 W/m 5,1 km/h (1 Bft)
18.03.2014 05:24 8,9 C 7,8 C 91 % 1015,9 hPa 0,0 l/m 0 min 0 min 0,0 UV-I 0 W/m 5,1 km/h (1 Bft)
18.03.2014 05:26 8,9 C 7,8 C 91 % 1015,9 hPa 0,0 l/m 0 min 0 min 0,0 UV-I 0 W/m 10,3 km/h (2 Bft)
18.03.2014 05:28 8,9 C 7,8 C 91 % 1015,9 hPa 0,0 l/m 0 min 0 min 0,0 UV-I 0 W/m 0,0 km/h (0 Bft)
18.03.2014 05:30 8,9 C 7,8 C 91 % 1015,8 hPa 0,0 l/m 0 min 0 min 0,0 UV-I 0 W/m 0,0 km/h (0 Bft)
18.03.2014 05:32 8,9 C 7,8 C 91 % 1015,9 hPa 0,0 l/m 0 min 0 min 0,0 UV-I 0 W/m 2,6 km/h (1 Bft)
18.03.2014 05:34 8,9 C 7,8 C 91 % 1015,9 hPa 0,0 l/m 0 min 0 min 0,0 UV-I 0 W/m 2,6 km/h (1 Bft)
18.03.2014 05:36 8,9 C 7,8 C 91 % 1015,9 hPa 0,0 l/m 0 min 0 min 0,0 UV-I 0 W/m 0,0 km/h (0 Bft)
18.03.2014 05:38 8,9 C 7,8 C 91 % 1015,8 hPa 0,0 l/m 0 min 0 min 0,0 UV-I 0 W/m 0,0 km/h (0 Bft)
18.03.2014 05:40 8,9 C 7,8 C 91 % 1015,7 hPa 0,0 l/m 0 min 0 min 0,0 UV-I 0 W/m 0,0 km/h (0 Bft)
18.03.2014 05:42 8,9 C 7,8 C 91 % 1015,6 hPa 0,0 l/m 0 min 0 min 0,0 UV-I 0 W/m 7,7 km/h (2 Bft)
18.03.2014 05:44 8,9 C 7,8 C 91 % 1015,7 hPa 0,0 l/m 0 min 0 min 0,0 UV-I 0 W/m 7,7 km/h (2 Bft)
18.03.2014 05:46 8,9 C 7,8 C 91 % 1015,8 hPa 0,0 l/m 0 min 0 min 0,0 UV-I 0 W/m 2,6 km/h (1 Bft)
18.03.2014 05:48 8,9 C 7,8 C 91 % 1015,7 hPa 0,0 l/m 0 min 0 min 0,0 UV-I 0 W/m 0,0 km/h (0 Bft)
18.03.2014 05:50 8,9 C 7,8 C 91 % 1015,7 hPa 0,0 l/m 0 min 0 min 0,0 UV-I 0 W/m 0,0 km/h (0 Bft)
18.03.2014 05:52 8,9 C 7,8 C 91 % 1015,7 hPa 0,0 l/m 0 min 0 min 0,0 UV-I 0 W/m 7,7 km/h (2 Bft)
18.03.2014 05:54 8,9 C 7,8 C 91 % 1015,8 hPa 0,0 l/m 0 min 0 min 0,0 UV-I 0 W/m 5,1 km/h (1 Bft)
18.03.2014 05:56 8,9 C 7,8 C 91 % 1015,7 hPa 0,0 l/m 0 min 0 min 0,0 UV-I 0 W/m 5,1 km/h (1 Bft)
18.03.2014 05:58 8,9 C 7,8 C 91 % 1015,6 hPa 0,0 l/m 0 min 0 min 0,0 UV-I 0 W/m 10,3 km/h (2 Bft)
18.03.2014 06:00 8,9 C 7,8 C 91 % 1015,7 hPa 0,0 l/m 0 min 0 min 0,0 UV-I 0 W/m 7,7 km/h (2 Bft)
18.03.2014 06:02 8,9 C 7,8 C 91 % 1015,7 hPa 0,0 l/m 0 min 0 min 0,0 UV-I 0 W/m 2,6 km/h (1 Bft)
18.03.2014 06:06 8,9 C 7,8 C 95 % 1015,7 hPa 0,0 l/m 0 min 0 min 0,0 UV-I 0 W/m 10,3 km/h (2 Bft)
18.03.2014 06:08 8,9 C 7,8 C 95 % 1015,6 hPa 0,0 l/m 0 min 0 min 0,0 UV-I 0 W/m 10,3 km/h (2 Bft)
18.03.2014 06:10 8,9 C 7,8 C 95 % 1015,6 hPa 0,0 l/m 0 min 0 min 0,0 UV-I 0 W/m 10,3 km/h (2 Bft)
18.03.2014 06:12 8,9 C 7,8 C 95 % 1015,6 hPa 0,0 l/m 0 min 0 min 0,0 UV-I 0 W/m 10,3 km/h (2 Bft)
18.03.2014 06:14 8,9 C 7,8 C 95 % 1015,6 hPa 0,0 l/m 0 min 0 min 0,0 UV-I 0 W/m 15,4 km/h (3 Bft)
18.03.2014 06:16 9,0 C 7,8 C 95 % 1015,6 hPa 0,0 l/m 0 min 0 min 0,0 UV-I 0 W/m 10,3 km/h (2 Bft)
18.03.2014 06:18 9,0 C 7,8 C 91 % 1015,7 hPa 0,0 l/m 0 min 0 min 0,0 UV-I 0 W/m 10,3 km/h (2 Bft)
18.03.2014 06:20 9,0 C 7,8 C 91 % 1015,7 hPa 0,0 l/m 0 min 0 min 0,0 UV-I 0 W/m 2,6 km/h (1 Bft)
18.03.2014 06:22 9,0 C 7,8 C 91 % 1015,7 hPa 0,0 l/m 0 min 0 min 0,0 UV-I 0 W/m 0,0 km/h (0 Bft)
18.03.2014 06:24 9,0 C 7,8 C 91 % 1015,7 hPa 0,0 l/m 0 min 0 min 0,0 UV-I 0 W/m 0,0 km/h (0 Bft)
18.03.2014 06:26 9,0 C 7,8 C 91 % 1015,7 hPa 0,0 l/m 0 min 0 min 0,0 UV-I 0 W/m 10,3 km/h (2 Bft)
18.03.2014 06:28 9,0 C 7,8 C 91 % 1015,7 hPa 0,0 l/m 0 min 0 min 0,0 UV-I 0 W/m 12,9 km/h (3 Bft)
18.03.2014 06:30 9,0 C 7,8 C 91 % 1015,6 hPa 0,0 l/m 0 min 0 min 0,0 UV-I 0 W/m 0,0 km/h (0 Bft)
18.03.2014 06:32 9,0 C 7,8 C 91 % 1015,6 hPa 0,0 l/m 0 min 0 min 0,0 UV-I 0 W/m 7,7 km/h (2 Bft)
18.03.2014 06:34 9,0 C 7,8 C 91 % 1015,6 hPa 0,0 l/m 0 min 0 min 0,0 UV-I 0 W/m 5,1 km/h (1 Bft)
18.03.2014 06:36 9,0 C 7,8 C 91 % 1015,6 hPa 0,0 l/m 0 min 0 min 0,0 UV-I 0 W/m 7,7 km/h (2 Bft)
18.03.2014 06:38 9,0 C 7,8 C 91 % 1015,6 hPa 0,0 l/m 0 min 0 min 0,0 UV-I 0 W/m 7,7 km/h (2 Bft)
18.03.2014 06:40 9,0 C 7,8 C 91 % 1015,6 hPa 0,0 l/m 0 min 0 min 0,0 UV-I 0 W/m 15,4 km/h (3 Bft)
18.03.2014 06:42 9,0 C 7,8 C 91 % 1015,6 hPa 0,0 l/m 0 min 0 min 0,0 UV-I 0 W/m 7,7 km/h (2 Bft)
18.03.2014 06:44 9,0 C 7,8 C 91 % 1015,6 hPa 0,0 l/m 0 min 0 min 0,0 UV-I 0 W/m 7,7 km/h (2 Bft)
18.03.2014 06:46 9,0 C 7,8 C 91 % 1015,6 hPa 0,0 l/m 0 min 0 min 0,0 UV-I 0 W/m 2,6 km/h (1 Bft)
18.03.2014 06:48 9,0 C 7,8 C 91 % 1015,6 hPa 0,0 l/m 0 min 0 min 0,0 UV-I 0 W/m 10,3 km/h (2 Bft)
18.03.2014 06:50 9,0 C 7,8 C 91 % 1015,6 hPa 0,0 l/m 0 min 0 min 0,0 UV-I 0 W/m 0,0 km/h (0 Bft)
18.03.2014 06:52 9,0 C 7,8 C 91 % 1015,6 hPa 0,0 l/m 0 min 0 min 0,0 UV-I 0 W/m 10,3 km/h (2 Bft)
18.03.2014 06:54 9,0 C 7,8 C 91 % 1015,5 hPa 0,0 l/m 0 min 0 min 0,0 UV-I 0 W/m 7,7 km/h (2 Bft)
18.03.2014 06:56 9,0 C 7,8 C 91 % 1015,5 hPa 0,0 l/m 0 min 0 min 0,0 UV-I 5 W/m 5,1 km/h (1 Bft)
18.03.2014 06:58 9,0 C 7,8 C 91 % 1015,5 hPa 0,0 l/m 0 min 0 min 0,0 UV-I 5 W/m 7,7 km/h (2 Bft)
18.03.2014 07:00 9,0 C 7,8 C 91 % 1015,6 hPa 0,0 l/m 0 min 0 min 0,0 UV-I 5 W/m 7,7 km/h (2 Bft)
18.03.2014 07:02 9,0 C 7,8 C 91 % 1015,6 hPa 0,0 l/m 0 min 0 min 0,0 UV-I 7 W/m 5,1 km/h (1 Bft)
18.03.2014 07:06 9,0 C 7,8 C 91 % 1015,5 hPa 0,0 l/m 0 min 0 min 0,0 UV-I 5 W/m 7,7 km/h (2 Bft)
18.03.2014 07:08 9,0 C 7,8 C 91 % 1015,5 hPa 0,0 l/m 0 min 0 min 0,0 UV-I 5 W/m 7,7 km/h (2 Bft)
18.03.2014 07:10 9,1 C 7,8 C 91 % 1015,5 hPa 0,0 l/m 0 min 0 min 0,0 UV-I 5 W/m 7,7 km/h (2 Bft)
18.03.2014 07:12 9,0 C 7,8 C 91 % 1015,5 hPa 0,0 l/m 0 min 0 min 0,0 UV-I 5 W/m 5,1 km/h (1 Bft)
18.03.2014 07:14 9,0 C 7,8 C 90 % 1015,5 hPa 0,0 l/m 0 min 0 min 0,0 UV-I 7 W/m 10,3 km/h (2 Bft)
18.03.2014 07:16 9,0 C 7,8 C 90 % 1015,5 hPa 0,0 l/m 0 min 0 min 0,0 UV-I 7 W/m 10,3 km/h (2 Bft)
18.03.2014 07:18 9,0 C 7,8 C 90 % 1015,6 hPa 0,0 l/m 0 min 0 min 0,0 UV-I 9 W/m 12,9 km/h (3 Bft)
18.03.2014 07:20 9,0 C 7,8 C 90 % 1015,6 hPa 0,0 l/m 0 min 0 min 0,0 UV-I 11 W/m 7,7 km/h (2 Bft)
18.03.2014 07:22 9,0 C 7,8 C 90 % 1015,7 hPa 0,0 l/m 0 min 0 min 0,0 UV-I 14 W/m 10,3 km/h (2 Bft)
18.03.2014 07:24 9,0 C 7,8 C 90 % 1015,7 hPa 0,0 l/m 0 min 0 min 0,0 UV-I 14 W/m 0,0 km/h (0 Bft)
18.03.2014 07:26 9,0 C 7,8 C 90 % 1015,6 hPa 0,0 l/m 0 min 0 min 0,0 UV-I 12 W/m 7,7 km/h (2 Bft)
18.03.2014 07:28 9,0 C 7,8 C 90 % 1015,6 hPa 0,0 l/m 0 min 0 min 0,0 UV-I 12 W/m 5,1 km/h (1 Bft)
18.03.2014 07:30 9,0 C 7,8 C 89 % 1015,6 hPa 0,0 l/m 0 min 0 min 0,0 UV-I 14 W/m 15,4 km/h (3 Bft)
18.03.2014 07:32 9,0 C 7,8 C 89 % 1015,6 hPa 0,0 l/m 0 min 0 min 0,0 UV-I 14 W/m 7,7 km/h (2 Bft)
18.03.2014 07:34 9,0 C 7,8 C 89 % 1015,6 hPa 0,0 l/m 0 min 0 min 0,0 UV-I 12 W/m 10,3 km/h (2 Bft)
18.03.2014 07:36 9,0 C 7,8 C 88 % 1015,6 hPa 0,0 l/m 0 min 0 min 0,0 UV-I 14 W/m 15,4 km/h (3 Bft)
18.03.2014 07:38 8,9 C 7,8 C 88 % 1015,6 hPa 0,0 l/m 0 min 0 min 0,0 UV-I 14 W/m 5,1 km/h (1 Bft)
18.03.2014 07:40 8,9 C 7,8 C 88 % 1015,6 hPa 0,0 l/m 0 min 0 min 0,0 UV-I 14 W/m 12,9 km/h (3 Bft)
18.03.2014 07:42 8,9 C 7,8 C 88 % 1015,6 hPa 0,0 l/m 0 min 0 min 0,0 UV-I 14 W/m 12,9 km/h (3 Bft)
18.03.2014 07:44 8,9 C 7,8 C 88 % 1015,6 hPa 0,0 l/m 0 min 0 min 0,0 UV-I 12 W/m 20,6 km/h (4 Bft)
18.03.2014 07:46 8,9 C 7,8 C 88 % 1015,7 hPa 0,0 l/m 0 min 0 min 0,0 UV-I 12 W/m 7,7 km/h (2 Bft)
18.03.2014 07:48 8,9 C 7,8 C 88 % 1015,6 hPa 0,0 l/m 0 min 0 min 0,0 UV-I 14 W/m 7,7 km/h (2 Bft)
18.03.2014 07:50 8,9 C 7,8 C 88 % 1015,7 hPa 0,0 l/m 0 min 0 min 0,0 UV-I 12 W/m 12,9 km/h (3 Bft)
18.03.2014 07:52 8,9 C 7,8 C 88 % 1015,7 hPa 0,0 l/m 0 min 0 min 0,0 UV-I 12 W/m 12,9 km/h (3 Bft)
18.03.2014 07:54 8,9 C 7,8 C 88 % 1015,6 hPa 0,0 l/m 0 min 0 min 0,0 UV-I 12 W/m 0,0 km/h (0 Bft)
18.03.2014 07:56 8,9 C 7,8 C 88 % 1015,6 hPa 0,0 l/m 0 min 0 min 0,0 UV-I 12 W/m 7,7 km/h (2 Bft)
18.03.2014 07:58 8,9 C 7,8 C 87 % 1015,6 hPa 0,0 l/m 0 min 0 min 0,0 UV-I 11 W/m 7,7 km/h (2 Bft)
18.03.2014 08:00 8,9 C 7,8 C 87 % 1015,6 hPa 0,0 l/m 0 min 0 min 0,0 UV-I 11 W/m 10,3 km/h (2 Bft)
18.03.2014 08:02 8,9 C 7,8 C 87 % 1015,6 hPa 0,0 l/m 0 min 0 min 0,0 UV-I 12 W/m 5,1 km/h (1 Bft)
18.03.2014 08:06 8,9 C 7,8 C 87 % 1015,6 hPa 0,0 l/m 0 min 0 min 0,0 UV-I 16 W/m 15,4 km/h (3 Bft)
18.03.2014 08:08 8,9 C 7,8 C 87 % 1015,5 hPa 0,0 l/m 0 min 0 min 0,0 UV-I 23 W/m 15,4 km/h (3 Bft)
18.03.2014 08:10 8,9 C 7,8 C 88 % 1015,6 hPa 0,0 l/m 0 min 0 min 0,0 UV-I 23 W/m 0,0 km/h (0 Bft)
18.03.2014 08:12 8,8 C 7,8 C 88 % 1015,6 hPa 0,0 l/m 0 min 0 min 0,0 UV-I 21 W/m 15,4 km/h (3 Bft)
18.03.2014 08:14 8,8 C 7,8 C 87 % 1015,6 hPa 0,0 l/m 0 min 0 min 0,0 UV-I 23 W/m 15,4 km/h (3 Bft)
18.03.2014 08:16 8,9 C 7,8 C 87 % 1015,7 hPa 0,0 l/m 0 min 0 min 0,0 UV-I 25 W/m 7,7 km/h (2 Bft)
18.03.2014 08:18 8,9 C 7,8 C 87 % 1015,8 hPa 0,0 l/m 0 min 0 min 0,0 UV-I 26 W/m 10,3 km/h (2 Bft)
18.03.2014 08:20 8,9 C 7,8 C 87 % 1015,8 hPa 0,0 l/m 0 min 0 min 0,0 UV-I 30 W/m 18,0 km/h (3 Bft)
18.03.2014 08:22 8,9 C 7,8 C 87 % 1015,8 hPa 0,0 l/m 0 min 0 min 0,0 UV-I 44 W/m 10,3 km/h (2 Bft)
18.03.2014 08:24 8,9 C 7,8 C 87 % 1015,8 hPa 0,0 l/m 0 min 0 min 0,0 UV-I 44 W/m 10,3 km/h (2 Bft)
18.03.2014 08:26 8,9 C 7,8 C 87 % 1015,8 hPa 0,0 l/m 0 min 0 min 0,0 UV-I 40 W/m 10,3 km/h (2 Bft)
18.03.2014 08:28 8,9 C 7,8 C 87 % 1015,8 hPa 0,0 l/m 0 min 0 min 0,0 UV-I 42 W/m 7,7 km/h (2 Bft)
18.03.2014 08:30 8,9 C 7,8 C 87 % 1015,8 hPa 0,0 l/m 0 min 0 min 0,0 UV-I 51 W/m 12,9 km/h (3 Bft)
18.03.2014 08:32 8,9 C 8,3 C 87 % 1015,7 hPa 0,0 l/m 0 min 0 min 0,0 UV-I 51 W/m 10,3 km/h (2 Bft)
18.03.2014 08:34 8,9 C 8,3 C 87 % 1015,7 hPa 0,0 l/m 0 min 0 min 0,0 UV-I 54 W/m 12,9 km/h (3 Bft)
18.03.2014 08:36 8,9 C 8,3 C 87 % 1015,7 hPa 0,0 l/m 0 min 0 min 0,0 UV-I 51 W/m 2,6 km/h (1 Bft)
18.03.2014 08:38 8,9 C 8,3 C 87 % 1015,7 hPa 0,0 l/m 0 min 0 min 0,0 UV-I 49 W/m 15,4 km/h (3 Bft)
18.03.2014 08:40 9,0 C 8,3 C 87 % 1015,7 hPa 0,0 l/m 0 min 0 min 0,0 UV-I 47 W/m 10,3 km/h (2 Bft)
18.03.2014 08:42 9,0 C 8,3 C 87 % 1015,8 hPa 0,0 l/m 0 min 0 min 0,0 UV-I 44 W/m 12,9 km/h (3 Bft)
18.03.2014 08:44 9,0 C 8,3 C 87 % 1015,9 hPa 0,0 l/m 0 min 0 min 0,0 UV-I 44 W/m 5,1 km/h (1 Bft)
18.03.2014 08:46 9,0 C 8,3 C 87 % 1015,8 hPa 0,0 l/m 0 min 0 min 0,0 UV-I 44 W/m 5,1 km/h (1 Bft)
18.03.2014 08:48 9,0 C 8,3 C 87 % 1015,9 hPa 0,0 l/m 0 min 0 min 0,0 UV-I 39 W/m 10,3 km/h (2 Bft)
18.03.2014 08:50 9,0 C 8,3 C 87 % 1015,9 hPa 0,0 l/m 0 min 0 min 0,0 UV-I 40 W/m 23,2 km/h (4 Bft)
18.03.2014 08:52 9,0 C 8,3 C 86 % 1015,9 hPa 0,0 l/m 0 min 0 min 0,0 UV-I 47 W/m 15,4 km/h (3 Bft)
18.03.2014 08:54 9,0 C 8,3 C 86 % 1015,9 hPa 0,0 l/m 0 min 0 min 0,0 UV-I 40 W/m 12,9 km/h (3 Bft)
18.03.2014 08:56 9,0 C 8,3 C 86 % 1015,9 hPa 0,0 l/m 0 min 0 min 0,0 UV-I 40 W/m 12,9 km/h (3 Bft)
18.03.2014 08:58 9,0 C 8,3 C 86 % 1015,9 hPa 0,0 l/m 0 min 0 min 0,0 UV-I 39 W/m 12,9 km/h (3 Bft)
18.03.2014 09:00 9,0 C 8,3 C 86 % 1015,8 hPa 0,0 l/m 0 min 0 min 0,0 UV-I 35 W/m 18,0 km/h (3 Bft)
18.03.2014 09:02 9,0 C 8,3 C 86 % 1015,9 hPa 0,0 l/m 0 min 0 min 0,0 UV-I 32 W/m 15,4 km/h (3 Bft)
18.03.2014 09:06 9,0 C 7,8 C 86 % 1015,9 hPa 0,0 l/m 0 min 0 min 0,0 UV-I 30 W/m 15,4 km/h (3 Bft)
18.03.2014 09:08 9,0 C 7,8 C 86 % 1015,9 hPa 0,0 l/m 0 min 0 min 0,0 UV-I 28 W/m 12,9 km/h (3 Bft)
18.03.2014 09:10 9,0 C 7,8 C 86 % 1015,9 hPa 0,0 l/m 0 min 0 min 0,0 UV-I 26 W/m 10,3 km/h (2 Bft)
18.03.2014 09:12 9,0 C 7,8 C 86 % 1015,9 hPa 0,0 l/m 0 min 0 min 0,0 UV-I 25 W/m 12,9 km/h (3 Bft)
18.03.2014 09:14 9,0 C 7,8 C 86 % 1016,0 hPa 0,0 l/m 0 min 0 min 0,0 UV-I 26 W/m 12,9 km/h (3 Bft)
18.03.2014 09:16 9,0 C 7,8 C 86 % 1015,9 hPa 0,0 l/m 0 min 0 min 0,0 UV-I 26 W/m 18,0 km/h (3 Bft)
18.03.2014 09:18 9,0 C 7,8 C 86 % 1016,0 hPa 0,0 l/m 0 min 0 min 0,0 UV-I 28 W/m 18,0 km/h (3 Bft)
18.03.2014 09:20 9,0 C 7,8 C 86 % 1016,0 hPa 0,0 l/m 0 min 0 min 0,0 UV-I 26 W/m 18,0 km/h (3 Bft)
18.03.2014 09:22 8,9 C 7,8 C 86 % 1016,0 hPa 0,0 l/m 0 min 0 min 0,0 UV-I 28 W/m 10,3 km/h (2 Bft)
18.03.2014 09:24 9,0 C 7,8 C 86 % 1016,0 hPa 0,0 l/m 0 min 0 min 0,0 UV-I 33 W/m 10,3 km/h (2 Bft)
18.03.2014 09:26 8,9 C 7,8 C 86 % 1016,0 hPa 0,0 l/m 0 min 0 min 0,0 UV-I 28 W/m 10,3 km/h (2 Bft)
18.03.2014 09:28 8,9 C 7,8 C 86 % 1016,0 hPa 0,0 l/m 0 min 0 min 0,0 UV-I 40 W/m 7,7 km/h (2 Bft)
18.03.2014 09:30 8,9 C 8,3 C 86 % 1016,0 hPa 0,0 l/m 0 min 0 min 0,0 UV-I 47 W/m 7,7 km/h (2 Bft)
18.03.2014 09:32 9,0 C 8,3 C 86 % 1016,0 hPa 0,0 l/m 0 min 0 min 0,0 UV-I 37 W/m 10,3 km/h (2 Bft)
18.03.2014 09:34 9,0 C 8,3 C 86 % 1016,0 hPa 0,0 l/m 0 min 0 min 0,0 UV-I 30 W/m 15,4 km/h (3 Bft)
18.03.2014 09:36 9,0 C 7,8 C 86 % 1016,0 hPa 0,0 l/m 0 min 0 min 0,0 UV-I 28 W/m 12,9 km/h (3 Bft)
18.03.2014 09:38 9,0 C 7,8 C 86 % 1016,0 hPa 0,0 l/m 0 min 0 min 0,0 UV-I 28 W/m 2,6 km/h (1 Bft)
18.03.2014 09:40 9,0 C 7,8 C 86 % 1016,0 hPa 0,0 l/m 0 min 0 min 0,0 UV-I 28 W/m 15,4 km/h (3 Bft)
18.03.2014 09:42 9,0 C 7,8 C 86 % 1015,9 hPa 0,0 l/m 0 min 0 min 0,0 UV-I 35 W/m 12,9 km/h (3 Bft)
18.03.2014 09:44 9,0 C 7,8 C 86 % 1015,9 hPa 0,0 l/m 0 min 0 min 0,0 UV-I 37 W/m 18,0 km/h (3 Bft)
18.03.2014 09:46 9,0 C 7,8 C 86 % 1016,0 hPa 0,0 l/m 0 min 0 min 0,0 UV-I 37 W/m 10,3 km/h (2 Bft)
18.03.2014 09:48 9,0 C 8,3 C 86 % 1015,9 hPa 0,0 l/m 0 min 0 min 0,0 UV-I 53 W/m 10,3 km/h (2 Bft)
18.03.2014 09:50 9,0 C 8,3 C 86 % 1015,9 hPa 0,0 l/m 0 min 0 min 0,0 UV-I 46 W/m 5,1 km/h (1 Bft)
18.03.2014 09:52 9,0 C 8,3 C 86 % 1015,9 hPa 0,0 l/m 0 min 0 min 0,0 UV-I 40 W/m 15,4 km/h (3 Bft)
18.03.2014 09:54 9,0 C 8,3 C 86 % 1015,9 hPa 0,0 l/m 0 min 0 min 0,0 UV-I 35 W/m 2,6 km/h (1 Bft)
18.03.2014 09:56 9,0 C 8,3 C 86 % 1015,9 hPa 0,0 l/m 0 min 0 min 0,0 UV-I 35 W/m 2,6 km/h (1 Bft)
18.03.2014 09:58 9,1 C 8,3 C 86 % 1016,0 hPa 0,0 l/m 0 min 0 min 0,0 UV-I 32 W/m 0,0 km/h (0 Bft)
18.03.2014 10:00 9,0 C 8,3 C 86 % 1015,9 hPa 0,0 l/m 0 min 0 min 0,0 UV-I 32 W/m 7,7 km/h (2 Bft)
18.03.2014 10:02 9,0 C 8,3 C 86 % 1015,9 hPa 0,0 l/m 0 min 0 min 0,0 UV-I 32 W/m 10,3 km/h (2 Bft)
18.03.2014 10:06 9,0 C 8,3 C 86 % 1015,8 hPa 0,0 l/m 0 min 0 min 0,0 UV-I 47 W/m 12,9 km/h (3 Bft)
18.03.2014 10:08 9,0 C 8,3 C 86 % 1015,8 hPa 0,0 l/m 0 min 0 min 0,0 UV-I 49 W/m 7,7 km/h (2 Bft)
18.03.2014 10:10 9,0 C 8,3 C 86 % 1015,7 hPa 0,0 l/m 0 min 0 min 0,0 UV-I 49 W/m 10,3 km/h (2 Bft)
18.03.2014 10:12 9,1 C 8,3 C 86 % 1015,8 hPa 0,0 l/m 0 min 0 min 0,0 UV-I 49 W/m 10,3 km/h (2 Bft)
18.03.2014 10:14 9,1 C 8,3 C 86 % 1015,7 hPa 0,0 l/m 0 min 0 min 0,0 UV-I 53 W/m 5,1 km/h (1 Bft)
18.03.2014 10:16 9,1 C 8,3 C 86 % 1015,7 hPa 0,0 l/m 0 min 0 min 0,0 UV-I 58 W/m 5,1 km/h (1 Bft)
18.03.2014 10:18 9,1 C 8,3 C 86 % 1015,7 hPa 0,0 l/m 0 min 0 min 0,0 UV-I 69 W/m 10,3 km/h (2 Bft)
18.03.2014 10:20 9,1 C 8,3 C 86 % 1015,7 hPa 0,0 l/m 0 min 0 min 0,0 UV-I 90 W/m 15,4 km/h (3 Bft)
18.03.2014 10:22 9,1 C 8,3 C 86 % 1015,6 hPa 0,0 l/m 0 min 0 min 0,0 UV-I 95 W/m 2,6 km/h (1 Bft)
18.03.2014 10:24 9,2 C 8,9 C 86 % 1015,7 hPa 0,0 l/m 0 min 0 min 0,0 UV-I 97 W/m 7,7 km/h (2 Bft)
18.03.2014 10:26 9,2 C 8,9 C 85 % 1015,7 hPa 0,0 l/m 0 min 0 min 0,0 UV-I 95 W/m 10,3 km/h (2 Bft)
18.03.2014 10:28 9,2 C 8,9 C 85 % 1015,6 hPa 0,0 l/m 0 min 0 min 0,0 UV-I 91 W/m 7,7 km/h (2 Bft)
18.03.2014 10:30 9,3 C 8,9 C 85 % 1015,6 hPa 0,0 l/m 0 min 0 min 0,0 UV-I 95 W/m 18,0 km/h (3 Bft)
18.03.2014 10:32 9,3 C 8,9 C 85 % 1015,6 hPa 0,0 l/m 0 min 0 min 0,0 UV-I 91 W/m 15,4 km/h (3 Bft)
18.03.2014 10:34 9,3 C 8,9 C 85 % 1015,5 hPa 0,0 l/m 0 min 0 min 0,0 UV-I 100 W/m 12,9 km/h (3 Bft)
18.03.2014 10:36 9,3 C 8,9 C 85 % 1015,5 hPa 0,0 l/m 0 min 0 min 0,0 UV-I 97 W/m 10,3 km/h (2 Bft)
18.03.2014 10:38 9,3 C 8,9 C 85 % 1015,5 hPa 0,0 l/m 0 min 0 min 0,0 UV-I 102 W/m 15,4 km/h (3 Bft)
18.03.2014 10:40 9,4 C 8,9 C 85 % 1015,5 hPa 0,0 l/m 0 min 0 min 0,0 UV-I 118 W/m 10,3 km/h (2 Bft)
18.03.2014 10:42 9,4 C 8,9 C 84 % 1015,5 hPa 0,0 l/m 0 min 0 min 0,0 UV-I 120 W/m 15,4 km/h (3 Bft)
18.03.2014 10:44 9,4 C 8,9 C 84 % 1015,5 hPa 0,0 l/m 0 min 0 min 0,0 UV-I 130 W/m 7,7 km/h (2 Bft)
18.03.2014 10:46 9,5 C 8,9 C 84 % 1015,5 hPa 0,0 l/m 0 min 0 min 0,0 UV-I 137 W/m 18,0 km/h (3 Bft)
18.03.2014 10:48 9,5 C 9,4 C 84 % 1015,5 hPa 0,0 l/m 0 min 0 min 0,0 UV-I 134 W/m 10,3 km/h (2 Bft)
18.03.2014 10:50 9,5 C 8,9 C 84 % 1015,5 hPa 0,0 l/m 0 min 0 min 0,0 UV-I 135 W/m 18,0 km/h (3 Bft)
18.03.2014 10:52 9,5 C 8,9 C 84 % 1015,5 hPa 0,0 l/m 0 min 0 min 0,0 UV-I 102 W/m 23,2 km/h (4 Bft)
18.03.2014 10:54 9,5 C 8,9 C 84 % 1015,5 hPa 0,0 l/m 0 min 0 min 0,0 UV-I 83 W/m 7,7 km/h (2 Bft)
18.03.2014 10:56 9,5 C 8,9 C 84 % 1015,5 hPa 0,0 l/m 0 min 0 min 0,0 UV-I 77 W/m 15,4 km/h (3 Bft)
18.03.2014 10:58 9,5 C 8,9 C 84 % 1015,5 hPa 0,0 l/m 0 min 0 min 0,0 UV-I 95 W/m 10,3 km/h (2 Bft)
18.03.2014 11:00 9,5 C 8,9 C 84 % 1015,5 hPa 0,0 l/m 0 min 0 min 0,0 UV-I 97 W/m 15,4 km/h (3 Bft)
18.03.2014 11:02 9,5 C 8,9 C 84 % 1015,5 hPa 0,0 l/m 0 min 0 min 0,0 UV-I 86 W/m 12,9 km/h (3 Bft)
18.03.2014 11:06 9,5 C 8,9 C 84 % 1015,5 hPa 0,0 l/m 0 min 0 min 0,0 UV-I 88 W/m 12,9 km/h (3 Bft)
18.03.2014 11:08 9,5 C 8,9 C 84 % 1015,5 hPa 0,0 l/m 0 min 0 min 0,0 UV-I 79 W/m 7,7 km/h (2 Bft)
18.03.2014 11:10 9,5 C 8,9 C 84 % 1015,5 hPa 0,0 l/m 0 min 0 min 0,0 UV-I 77 W/m 12,9 km/h (3 Bft)
18.03.2014 11:12 9,5 C 8,9 C 84 % 1015,5 hPa 0,0 l/m 0 min 0 min 0,0 UV-I 84 W/m 12,9 km/h (3 Bft)
18.03.2014 11:14 9,4 C 8,9 C 84 % 1015,5 hPa 0,0 l/m 0 min 0 min 0,0 UV-I 77 W/m 12,9 km/h (3 Bft)
18.03.2014 11:16 9,4 C 8,9 C 84 % 1015,4 hPa 0,0 l/m 0 min 0 min 0,0 UV-I 76 W/m 12,9 km/h (3 Bft)
18.03.2014 11:18 9,4 C 8,9 C 84 % 1015,4 hPa 0,0 l/m 0 min 0 min 0,0 UV-I 74 W/m 15,4 km/h (3 Bft)
18.03.2014 11:20 9,4 C 8,9 C 84 % 1015,4 hPa 0,0 l/m 0 min 0 min 0,0 UV-I 81 W/m 15,4 km/h (3 Bft)
18.03.2014 11:22 9,4 C 8,9 C 85 % 1015,3 hPa 0,0 l/m 0 min 0 min 0,0 UV-I 74 W/m 7,7 km/h (2 Bft)
18.03.2014 11:24 9,4 C 8,9 C 85 % 1015,3 hPa 0,0 l/m 0 min 0 min 0,0 UV-I 81 W/m 12,9 km/h (3 Bft)
18.03.2014 11:26 9,4 C 8,9 C 85 % 1015,3 hPa 0,0 l/m 0 min 0 min 0,0 UV-I 72 W/m 10,3 km/h (2 Bft)
18.03.2014 11:28 9,4 C 8,9 C 85 % 1015,3 hPa 0,0 l/m 0 min 0 min 0,0 UV-I 70 W/m 10,3 km/h (2 Bft)
18.03.2014 11:30 9,4 C 8,9 C 85 % 1015,2 hPa 0,0 l/m 0 min 0 min 0,0 UV-I 70 W/m 2,6 km/h (1 Bft)
18.03.2014 11:32 9,4 C 8,9 C 85 % 1015,4 hPa 0,0 l/m 0 min 0 min 0,0 UV-I 84 W/m 7,7 km/h (2 Bft)
18.03.2014 11:34 9,4 C 8,9 C 85 % 1015,3 hPa 0,0 l/m 0 min 0 min 0,0 UV-I 90 W/m 2,6 km/h (1 Bft)
18.03.2014 11:36 9,4 C 8,9 C 85 % 1015,3 hPa 0,0 l/m 0 min 0 min 0,0 UV-I 81 W/m 0,0 km/h (0 Bft)
18.03.2014 11:38 9,5 C 8,9 C 85 % 1015,2 hPa 0,0 l/m 0 min 0 min 0,0 UV-I 105 W/m 12,9 km/h (3 Bft)
18.03.2014 11:40 9,4 C 8,9 C 85 % 1015,2 hPa 0,0 l/m 0 min 0 min 0,0 UV-I 102 W/m 15,4 km/h (3 Bft)
18.03.2014 11:42 9,5 C 8,9 C 85 % 1015,3 hPa 0,0 l/m 0 min 0 min 0,0 UV-I 90 W/m 12,9 km/h (3 Bft)
18.03.2014 11:44 9,5 C 8,9 C 85 % 1015,3 hPa 0,0 l/m 0 min 0 min 0,0 UV-I 109 W/m 18,0 km/h (3 Bft)
18.03.2014 11:46 9,5 C 8,9 C 85 % 1015,4 hPa 0,0 l/m 0 min 0 min 0,0 UV-I 105 W/m 10,3 km/h (2 Bft)
18.03.2014 11:48 9,5 C 8,9 C 85 % 1015,3 hPa 0,0 l/m 0 min 0 min 0,0 UV-I 100 W/m 10,3 km/h (2 Bft)
18.03.2014 11:50 9,5 C 8,9 C 85 % 1015,3 hPa 0,0 l/m 0 min 0 min 0,0 UV-I 84 W/m 10,3 km/h (2 Bft)
18.03.2014 11:52 9,5 C 8,9 C 85 % 1015,2 hPa 0,0 l/m 0 min 0 min 0,0 UV-I 98 W/m 12,9 km/h (3 Bft)
18.03.2014 11:54 9,5 C 8,9 C 85 % 1015,2 hPa 0,0 l/m 0 min 0 min 0,0 UV-I 97 W/m 7,7 km/h (2 Bft)
18.03.2014 11:56 9,6 C 8,9 C 85 % 1015,2 hPa 0,0 l/m 0 min 0 min 0,0 UV-I 88 W/m 7,7 km/h (2 Bft)
18.03.2014 11:58 9,6 C 8,9 C 85 % 1015,2 hPa 0,0 l/m 0 min 0 min 0,0 UV-I 77 W/m 12,9 km/h (3 Bft)
18.03.2014 12:00 9,6 C 8,9 C 85 % 1015,2 hPa 0,0 l/m 0 min 0 min 0,0 UV-I 77 W/m 12,9 km/h (3 Bft)
18.03.2014 12:02 9,6 C 8,9 C 85 % 1015,3 hPa 0,0 l/m 0 min 0 min 0,0 UV-I 72 W/m 15,4 km/h (3 Bft)
18.03.2014 12:06 9,5 C 8,9 C 85 % 1015,2 hPa 0,0 l/m 0 min 0 min 0,0 UV-I 69 W/m 10,3 km/h (2 Bft)
18.03.2014 12:08 9,5 C 8,9 C 84 % 1015,1 hPa 0,0 l/m 0 min 0 min 0,0 UV-I 79 W/m 12,9 km/h (3 Bft)
18.03.2014 12:10 9,5 C 8,9 C 84 % 1015,2 hPa 0,0 l/m 0 min 0 min 0,0 UV-I 77 W/m 7,7 km/h (2 Bft)
18.03.2014 12:12 9,5 C 8,9 C 85 % 1015,2 hPa 0,0 l/m 0 min 0 min 0,0 UV-I 83 W/m 7,7 km/h (2 Bft)
18.03.2014 12:14 9,6 C 8,9 C 85 % 1015,2 hPa 0,0 l/m 0 min 0 min 0,0 UV-I 86 W/m 12,9 km/h (3 Bft)
18.03.2014 12:16 9,6 C 8,9 C 85 % 1015,1 hPa 0,0 l/m 0 min 0 min 0,0 UV-I 74 W/m 12,9 km/h (3 Bft)
18.03.2014 12:18 9,6 C 8,9 C 85 % 1015,1 hPa 0,0 l/m 0 min 0 min 0,0 UV-I 72 W/m 7,7 km/h (2 Bft)
18.03.2014 12:20 9,6 C 8,9 C 85 % 1015,0 hPa 0,0 l/m 0 min 0 min 0,0 UV-I 90 W/m 2,6 km/h (1 Bft)
18.03.2014 12:22 9,6 C 8,9 C 85 % 1014,9 hPa 0,0 l/m 0 min 0 min 0,0 UV-I 98 W/m 12,9 km/h (3 Bft)
18.03.2014 12:24 9,6 C 8,9 C 85 % 1014,9 hPa 0,0 l/m 0 min 0 min 0,0 UV-I 98 W/m 5,1 km/h (1 Bft)
18.03.2014 12:26 9,6 C 8,9 C 85 % 1014,8 hPa 0,0 l/m 0 min 0 min 0,0 UV-I 84 W/m 10,3 km/h (2 Bft)
18.03.2014 12:28 9,7 C 8,9 C 85 % 1014,8 hPa 0,0 l/m 0 min 0 min 0,0 UV-I 76 W/m 0,0 km/h (0 Bft)
18.03.2014 12:30 9,6 C 8,9 C 84 % 1014,8 hPa 0,0 l/m 0 min 0 min 0,0 UV-I 69 W/m 18,0 km/h (3 Bft)
18.03.2014 12:32 9,6 C 8,9 C 84 % 1014,9 hPa 0,0 l/m 0 min 0 min 0,0 UV-I 79 W/m 15,4 km/h (3 Bft)
18.03.2014 12:34 9,6 C 8,9 C 84 % 1014,8 hPa 0,0 l/m 0 min 0 min 0,0 UV-I 97 W/m 5,1 km/h (1 Bft)
18.03.2014 12:36 9,6 C 9,4 C 85 % 1014,8 hPa 0,0 l/m 0 min 0 min 0,0 UV-I 104 W/m 7,7 km/h (2 Bft)
18.03.2014 12:38 9,7 C 9,4 C 85 % 1014,9 hPa 0,0 l/m 0 min 0 min 0,0 UV-I 100 W/m 12,9 km/h (3 Bft)
18.03.2014 12:40 9,7 C 9,4 C 85 % 1014,8 hPa 0,0 l/m 0 min 0 min 0,0 UV-I 114 W/m 12,9 km/h (3 Bft)
18.03.2014 12:42 9,7 C 9,4 C 84 % 1014,8 hPa 0,0 l/m 0 min 0 min 0,0 UV-I 113 W/m 18,0 km/h (3 Bft)
18.03.2014 12:44 9,7 C 9,4 C 84 % 1014,8 hPa 0,0 l/m 0 min 0 min 0,0 UV-I 109 W/m 10,3 km/h (2 Bft)
18.03.2014 12:46 9,8 C 9,4 C 84 % 1014,8 hPa 0,0 l/m 0 min 0 min 0,0 UV-I 111 W/m 7,7 km/h (2 Bft)
18.03.2014 12:48 9,8 C 9,4 C 84 % 1014,7 hPa 0,0 l/m 0 min 0 min 0,0 UV-I 100 W/m 7,7 km/h (2 Bft)
18.03.2014 12:50 9,8 C 9,4 C 84 % 1014,7 hPa 0,0 l/m 0 min 0 min 0,0 UV-I 90 W/m 2,6 km/h (1 Bft)
18.03.2014 12:52 9,8 C 9,4 C 84 % 1014,8 hPa 0,0 l/m 0 min 0 min 0,0 UV-I 62 W/m 5,1 km/h (1 Bft)
18.03.2014 12:54 9,8 C 9,4 C 83 % 1014,7 hPa 0,0 l/m 0 min 0 min 0,0 UV-I 58 W/m 15,4 km/h (3 Bft)
18.03.2014 12:56 9,8 C 9,4 C 84 % 1014,7 hPa 0,0 l/m 0 min 0 min 0,0 UV-I 54 W/m 0,0 km/h (0 Bft)
18.03.2014 12:58 9,8 C 9,4 C 84 % 1014,7 hPa 0,0 l/m 0 min 0 min 0,0 UV-I 90 W/m 7,7 km/h (2 Bft)
18.03.2014 13:00 9,8 C 9,4 C 84 % 1014,6 hPa 0,0 l/m 0 min 0 min 0,0 UV-I 107 W/m 5,1 km/h (1 Bft)
18.03.2014 13:02 9,8 C 9,4 C 84 % 1014,6 hPa 0,0 l/m 0 min 0 min 0,0 UV-I 102 W/m 7,7 km/h (2 Bft)
18.03.2014 13:06 9,8 C 9,4 C 84 % 1014,7 hPa 0,0 l/m 0 min 0 min 0,0 UV-I 91 W/m 18,0 km/h (3 Bft)
18.03.2014 13:08 9,8 C 9,4 C 84 % 1014,5 hPa 0,0 l/m 0 min 0 min 0,0 UV-I 88 W/m 7,7 km/h (2 Bft)
18.03.2014 13:10 9,8 C 9,4 C 84 % 1014,6 hPa 0,0 l/m 0 min 0 min 0,0 UV-I 83 W/m 12,9 km/h (3 Bft)
18.03.2014 13:12 9,8 C 9,4 C 84 % 1014,5 hPa 0,0 l/m 0 min 0 min 0,0 UV-I 83 W/m 23,2 km/h (4 Bft)
18.03.2014 13:14 9,8 C 9,4 C 84 % 1014,5 hPa 0,0 l/m 0 min 0 min 0,0 UV-I 70 W/m 10,3 km/h (2 Bft)
18.03.2014 13:16 9,8 C 9,4 C 84 % 1014,4 hPa 0,0 l/m 0 min 0 min 0,0 UV-I 69 W/m 7,7 km/h (2 Bft)
18.03.2014 13:18 9,8 C 9,4 C 84 % 1014,5 hPa 0,0 l/m 0 min 0 min 0,0 UV-I 63 W/m 7,7 km/h (2 Bft)
18.03.2014 13:20 9,8 C 9,4 C 84 % 1014,4 hPa 0,0 l/m 0 min 0 min 0,0 UV-I 70 W/m 7,7 km/h (2 Bft)
18.03.2014 13:22 9,8 C 9,4 C 84 % 1014,4 hPa 0,0 l/m 0 min 0 min 0,0 UV-I 77 W/m 12,9 km/h (3 Bft)
18.03.2014 13:24 9,8 C 9,4 C 84 % 1014,4 hPa 0,0 l/m 0 min 0 min 0,0 UV-I 97 W/m 5,1 km/h (1 Bft)
18.03.2014 13:26 9,9 C 9,4 C 84 % 1014,3 hPa 0,0 l/m 0 min 0 min 0,0 UV-I 97 W/m 10,3 km/h (2 Bft)
18.03.2014 13:28 9,9 C 9,4 C 84 % 1014,2 hPa 0,0 l/m 0 min 0 min 0,0 UV-I 121 W/m 2,6 km/h (1 Bft)
18.03.2014 13:30 9,9 C 9,4 C 84 % 1014,3 hPa 0,0 l/m 0 min 0 min 0,0 UV-I 97 W/m 10,3 km/h (2 Bft)
18.03.2014 13:32 9,9 C 9,4 C 83 % 1014,3 hPa 0,0 l/m 0 min 0 min 0,0 UV-I 102 W/m 18,0 km/h (3 Bft)
18.03.2014 13:34 10,0 C 9,4 C 83 % 1014,2 hPa 0,0 l/m 0 min 0 min 0,0 UV-I 97 W/m 12,9 km/h (3 Bft)
18.03.2014 13:36 10,0 C 9,4 C 83 % 1014,3 hPa 0,0 l/m 0 min 0 min 0,0 UV-I 90 W/m 7,7 km/h (2 Bft)
18.03.2014 13:38 10,0 C 9,4 C 83 % 1014,3 hPa 0,0 l/m 0 min 0 min 0,0 UV-I 84 W/m 12,9 km/h (3 Bft)
18.03.2014 13:40 10,0 C 9,4 C 83 % 1014,2 hPa 0,0 l/m 0 min 0 min 0,0 UV-I 83 W/m 10,3 km/h (2 Bft)
18.03.2014 13:42 10,0 C 9,4 C 83 % 1014,2 hPa 0,0 l/m 0 min 0 min 0,0 UV-I 77 W/m 15,4 km/h (3 Bft)
18.03.2014 13:44 10,0 C 9,4 C 82 % 1014,1 hPa 0,0 l/m 0 min 0 min 0,0 UV-I 79 W/m 12,9 km/h (3 Bft)
18.03.2014 13:46 10,0 C 9,4 C 82 % 1014,1 hPa 0,0 l/m 0 min 0 min 0,0 UV-I 67 W/m 12,9 km/h (3 Bft)
18.03.2014 13:48 10,0 C 9,4 C 82 % 1014,1 hPa 0,0 l/m 0 min 0 min 0,0 UV-I 69 W/m 7,7 km/h (2 Bft)
18.03.2014 13:50 10,0 C 9,4 C 82 % 1014,1 hPa 0,0 l/m 0 min 0 min 0,0 UV-I 58 W/m 12,9 km/h (3 Bft)
18.03.2014 13:52 10,0 C 9,4 C 82 % 1014,2 hPa 0,0 l/m 0 min 0 min 0,0 UV-I 60 W/m 10,3 km/h (2 Bft)
18.03.2014 13:54 10,0 C 9,4 C 82 % 1014,1 hPa 0,0 l/m 0 min 0 min 0,0 UV-I 54 W/m 10,3 km/h (2 Bft)
18.03.2014 13:56 10,0 C 9,4 C 82 % 1014,0 hPa 0,0 l/m 0 min 0 min 0,0 UV-I 49 W/m 12,9 km/h (3 Bft)
18.03.2014 13:58 10,0 C 9,4 C 82 % 1014,0 hPa 0,0 l/m 0 min 0 min 0,0 UV-I 58 W/m 15,4 km/h (3 Bft)
18.03.2014 14:00 10,0 C 9,4 C 82 % 1013,9 hPa 0,0 l/m 0 min 0 min 0,0 UV-I 74 W/m 7,7 km/h (2 Bft)
18.03.2014 14:02 10,0 C 9,4 C 82 % 1013,9 hPa 0,0 l/m 0 min 0 min 0,0 UV-I 72 W/m 12,9 km/h (3 Bft)
18.03.2014 14:06 10,0 C 9,4 C 82 % 1013,9 hPa 0,0 l/m 0 min 0 min 0,0 UV-I 83 W/m 12,9 km/h (3 Bft)
18.03.2014 14:08 10,1 C 9,4 C 82 % 1013,8 hPa 0,0 l/m 0 min 0 min 0,0 UV-I 86 W/m 0,0 km/h (0 Bft)
18.03.2014 14:10 10,1 C 9,4 C 82 % 1013,7 hPa 0,0 l/m 0 min 0 min 0,0 UV-I 62 W/m 2,6 km/h (1 Bft)
18.03.2014 14:12 10,1 C 9,4 C 82 % 1013,7 hPa 0,0 l/m 0 min 0 min 0,0 UV-I 53 W/m 12,9 km/h (3 Bft)
18.03.2014 14:14 10,0 C 9,4 C 82 % 1013,7 hPa 0,0 l/m 0 min 0 min 0,0 UV-I 63 W/m 7,7 km/h (2 Bft)
18.03.2014 14:16 10,1 C 9,4 C 83 % 1013,6 hPa 0,0 l/m 0 min 0 min 0,0 UV-I 62 W/m 18,0 km/h (3 Bft)
18.03.2014 14:18 10,0 C 9,4 C 83 % 1013,6 hPa 0,0 l/m 0 min 0 min 0,0 UV-I 53 W/m 18,0 km/h (3 Bft)
18.03.2014 14:20 10,0 C 9,4 C 83 % 1013,7 hPa 0,0 l/m 0 min 0 min 0,0 UV-I 54 W/m 10,3 km/h (2 Bft)
18.03.2014 14:22 10,0 C 9,4 C 83 % 1013,7 hPa 0,0 l/m 0 min 0 min 0,0 UV-I 58 W/m 25,7 km/h (4 Bft)
18.03.2014 14:24 10,0 C 9,4 C 83 % 1013,7 hPa 0,0 l/m 0 min 0 min 0,0 UV-I 44 W/m 15,4 km/h (3 Bft)
18.03.2014 14:26 10,0 C 8,9 C 83 % 1013,7 hPa 0,0 l/m 0 min 0 min 0,0 UV-I 42 W/m 10,3 km/h (2 Bft)
18.03.2014 14:28 10,0 C 9,4 C 83 % 1013,7 hPa 0,0 l/m 0 min 0 min 0,0 UV-I 63 W/m 10,3 km/h (2 Bft)
18.03.2014 14:30 10,0 C 9,4 C 83 % 1013,6 hPa 0,0 l/m 0 min 0 min 0,0 UV-I 65 W/m 7,7 km/h (2 Bft)
18.03.2014 14:32 10,0 C 9,4 C 83 % 1013,5 hPa 0,0 l/m 0 min 0 min 0,0 UV-I 91 W/m 12,9 km/h (3 Bft)
18.03.2014 14:34 10,0 C 9,4 C 83 % 1013,5 hPa 0,0 l/m 0 min 0 min 0,0 UV-I 88 W/m 5,1 km/h (1 Bft)
18.03.2014 14:36 10,1 C 9,4 C 83 % 1013,5 hPa 0,0 l/m 0 min 0 min 0,0 UV-I 95 W/m 10,3 km/h (2 Bft)
18.03.2014 14:38 10,1 C 9,4 C 83 % 1013,5 hPa 0,0 l/m 0 min 0 min 0,0 UV-I 95 W/m 12,9 km/h (3 Bft)
18.03.2014 14:40 10,1 C 9,4 C 83 % 1013,5 hPa 0,0 l/m 0 min 0 min 0,0 UV-I 58 W/m 10,3 km/h (2 Bft)
18.03.2014 14:42 10,1 C 9,4 C 83 % 1013,5 hPa 0,0 l/m 0 min 0 min 0,0 UV-I 70 W/m 0,0 km/h (0 Bft)
18.03.2014 14:44 10,1 C 9,4 C 83 % 1013,6 hPa 0,0 l/m 0 min 0 min 0,0 UV-I 69 W/m 7,7 km/h (2 Bft)
18.03.2014 14:46 10,1 C 9,4 C 83 % 1013,6 hPa 0,0 l/m 0 min 0 min 0,0 UV-I 56 W/m 12,9 km/h (3 Bft)
18.03.2014 14:48 10,1 C 9,4 C 83 % 1013,5 hPa 0,0 l/m 0 min 0 min 0,0 UV-I 46 W/m 7,7 km/h (2 Bft)
18.03.2014 14:50 10,1 C 9,4 C 83 % 1013,5 hPa 0,0 l/m 0 min 0 min 0,0 UV-I 46 W/m 7,7 km/h (2 Bft)
18.03.2014 14:52 10,1 C 9,4 C 83 % 1013,4 hPa 0,0 l/m 0 min 0 min 0,0 UV-I 53 W/m 10,3 km/h (2 Bft)
18.03.2014 14:54 10,1 C 9,4 C 83 % 1013,4 hPa 0,0 l/m 0 min 0 min 0,0 UV-I 54 W/m 7,7 km/h (2 Bft)
18.03.2014 14:56 10,1 C 9,4 C 83 % 1013,5 hPa 0,0 l/m 0 min 0 min 0,0 UV-I 46 W/m 12,9 km/h (3 Bft)
18.03.2014 14:58 10,1 C 9,4 C 83 % 1013,5 hPa 0,0 l/m 0 min 0 min 0,0 UV-I 46 W/m 12,9 km/h (3 Bft)
18.03.2014 15:00 10,1 C 9,4 C 83 % 1013,5 hPa 0,0 l/m 0 min 0 min 0,0 UV-I 42 W/m 18,0 km/h (3 Bft)
18.03.2014 15:02 10,1 C 9,4 C 83 % 1013,5 hPa 0,0 l/m 0 min 0 min 0,0 UV-I 40 W/m 7,7 km/h (2 Bft)
18.03.2014 15:06 10,0 C 8,9 C 84 % 1013,4 hPa 0,0 l/m 0 min 0 min 0,0 UV-I 39 W/m 12,9 km/h (3 Bft)
18.03.2014 15:08 10,0 C 8,9 C 84 % 1013,3 hPa 0,0 l/m 0 min 0 min 0,0 UV-I 37 W/m 10,3 km/h (2 Bft)
18.03.2014 15:10 10,0 C 8,9 C 84 % 1013,4 hPa 0,0 l/m 0 min 0 min 0,0 UV-I 39 W/m 18,0 km/h (3 Bft)
18.03.2014 15:12 10,0 C 8,9 C 84 % 1013,4 hPa 0,0 l/m 0 min 0 min 0,0 UV-I 33 W/m 18,0 km/h (3 Bft)
18.03.2014 15:14 10,0 C 8,9 C 84 % 1013,4 hPa 0,0 l/m 0 min 0 min 0,0 UV-I 33 W/m 10,3 km/h (2 Bft)
18.03.2014 15:16 10,0 C 8,9 C 84 % 1013,4 hPa 0,0 l/m 0 min 0 min 0,0 UV-I 33 W/m 12,9 km/h (3 Bft)
18.03.2014 15:18 10,0 C 8,9 C 84 % 1013,3 hPa 0,0 l/m 0 min 0 min 0,0 UV-I 30 W/m 12,9 km/h (3 Bft)
18.03.2014 15:20 10,0 C 8,9 C 84 % 1013,3 hPa 0,0 l/m 0 min 0 min 0,0 UV-I 28 W/m 15,4 km/h (3 Bft)
18.03.2014 15:22 10,0 C 8,9 C 84 % 1013,4 hPa 0,0 l/m 0 min 0 min 0,0 UV-I 28 W/m 23,2 km/h (4 Bft)
18.03.2014 15:24 9,9 C 8,9 C 84 % 1013,2 hPa 0,0 l/m 0 min 0 min 0,0 UV-I 32 W/m 18,0 km/h (3 Bft)
18.03.2014 15:26 9,9 C 8,9 C 84 % 1013,1 hPa 0,0 l/m 0 min 0 min 0,0 UV-I 37 W/m 18,0 km/h (3 Bft)
18.03.2014 15:28 9,9 C 8,9 C 84 % 1013,1 hPa 0,0 l/m 0 min 0 min 0,0 UV-I 25 W/m 10,3 km/h (2 Bft)
18.03.2014 15:30 9,9 C 8,9 C 84 % 1012,9 hPa 0,0 l/m 0 min 0 min 0,0 UV-I 37 W/m 18,0 km/h (3 Bft)
18.03.2014 15:32 9,9 C 8,9 C 84 % 1013,0 hPa 0,0 l/m 0 min 0 min 0,0 UV-I 30 W/m 12,9 km/h (3 Bft)
18.03.2014 15:34 9,9 C 8,9 C 84 % 1013,0 hPa 0,0 l/m 0 min 0 min 0,0 UV-I 44 W/m 15,4 km/h (3 Bft)
18.03.2014 15:36 9,9 C 8,9 C 84 % 1013,0 hPa 0,0 l/m 0 min 0 min 0,0 UV-I 49 W/m 15,4 km/h (3 Bft)
18.03.2014 15:38 9,9 C 8,9 C 84 % 1012,9 hPa 0,0 l/m 0 min 0 min 0,0 UV-I 51 W/m 12,9 km/h (3 Bft)
18.03.2014 15:40 9,9 C 8,9 C 84 % 1013,0 hPa 0,0 l/m 0 min 0 min 0,0 UV-I 47 W/m 15,4 km/h (3 Bft)
18.03.2014 15:42 9,9 C 8,9 C 84 % 1013,0 hPa 0,0 l/m 0 min 0 min 0,0 UV-I 32 W/m 18,0 km/h (3 Bft)
18.03.2014 15:44 9,9 C 8,9 C 84 % 1013,1 hPa 0,0 l/m 0 min 0 min 0,0 UV-I 58 W/m 15,4 km/h (3 Bft)
18.03.2014 15:46 9,9 C 8,9 C 84 % 1013,0 hPa 0,0 l/m 0 min 0 min 0,0 UV-I 58 W/m 7,7 km/h (2 Bft)
18.03.2014 15:48 9,9 C 8,9 C 84 % 1013,0 hPa 0,0 l/m 0 min 0 min 0,0 UV-I 46 W/m 18,0 km/h (3 Bft)
18.03.2014 15:50 9,9 C 8,9 C 84 % 1012,9 hPa 0,0 l/m 0 min 0 min 0,0 UV-I 74 W/m 18,0 km/h (3 Bft)
18.03.2014 15:52 9,9 C 9,4 C 84 % 1012,8 hPa 0,0 l/m 0 min 0 min 0,0 UV-I 88 W/m 15,4 km/h (3 Bft)
18.03.2014 15:54 9,9 C 9,4 C 84 % 1012,9 hPa 0,0 l/m 0 min 0 min 0,0 UV-I 137 W/m 15,4 km/h (3 Bft)
18.03.2014 15:56 9,9 C 9,4 C 84 % 1012,9 hPa 0,0 l/m 0 min 0 min 0,0 UV-I 132 W/m 10,3 km/h (2 Bft)
18.03.2014 15:58 10,0 C 9,4 C 84 % 1012,8 hPa 0,0 l/m 0 min 0 min 0,0 UV-I 128 W/m 12,9 km/h (3 Bft)
18.03.2014 16:00 10,1 C 9,4 C 84 % 1012,6 hPa 0,0 l/m 0 min 0 min 0,0 UV-I 95 W/m 10,3 km/h (2 Bft)
18.03.2014 16:02 10,1 C 9,4 C 83 % 1012,7 hPa 0,0 l/m 0 min 0 min 0,0 UV-I 95 W/m 20,6 km/h (4 Bft)
18.03.2014 16:06 10,2 C 9,4 C 83 % 1012,7 hPa 0,0 l/m 0 min 0 min 0,0 UV-I 113 W/m 10,3 km/h (2 Bft)
18.03.2014 16:08 10,2 C 9,4 C 83 % 1012,7 hPa 0,0 l/m 0 min 0 min 0,0 UV-I 118 W/m 5,1 km/h (1 Bft)
18.03.2014 16:10 10,2 C 9,4 C 83 % 1012,8 hPa 0,0 l/m 0 min 0 min 0,0 UV-I 91 W/m 23,2 km/h (4 Bft)
18.03.2014 16:12 10,2 C 9,4 C 82 % 1012,8 hPa 0,0 l/m 0 min 0 min 0,0 UV-I 83 W/m 23,2 km/h (4 Bft)
18.03.2014 16:14 10,2 C 9,4 C 82 % 1012,8 hPa 0,0 l/m 0 min 0 min 0,0 UV-I 62 W/m 10,3 km/h (2 Bft)
18.03.2014 16:16 10,2 C 9,4 C 82 % 1012,8 hPa 0,0 l/m 0 min 0 min 0,0 UV-I 51 W/m 12,9 km/h (3 Bft)
18.03.2014 16:18 10,2 C 9,4 C 82 % 1012,9 hPa 0,0 l/m 0 min 0 min 0,0 UV-I 44 W/m 2,6 km/h (1 Bft)
18.03.2014 16:20 10,2 C 9,4 C 82 % 1012,8 hPa 0,0 l/m 0 min 0 min 0,0 UV-I 39 W/m 18,0 km/h (3 Bft)
18.03.2014 16:22 10,2 C 9,4 C 82 % 1012,9 hPa 0,0 l/m 0 min 0 min 0,0 UV-I 28 W/m 23,2 km/h (4 Bft)
18.03.2014 16:24 10,2 C 8,9 C 82 % 1013,0 hPa 0,0 l/m 0 min 0 min 0,0 UV-I 28 W/m 10,3 km/h (2 Bft)
18.03.2014 16:26 10,1 C 8,9 C 82 % 1013,0 hPa 0,0 l/m 0 min 0 min 0,0 UV-I 18 W/m 12,9 km/h (3 Bft)
18.03.2014 16:28 10,1 C 8,9 C 82 % 1013,0 hPa 0,0 l/m 0 min 0 min 0,0 UV-I 23 W/m 12,9 km/h (3 Bft)
18.03.2014 16:30 10,1 C 8,9 C 82 % 1012,9 hPa 0,0 l/m 0 min 0 min 0,0 UV-I 25 W/m 23,2 km/h (4 Bft)
18.03.2014 16:32 10,0 C 8,9 C 82 % 1012,9 hPa 0,0 l/m 0 min 0 min 0,0 UV-I 32 W/m 23,2 km/h (4 Bft)
18.03.2014 16:34 10,0 C 8,9 C 82 % 1012,9 hPa 0,0 l/m 0 min 0 min 0,0 UV-I 35 W/m 28,3 km/h (4 Bft)
18.03.2014 16:36 10,0 C 8,9 C 82 % 1012,9 hPa 0,0 l/m 0 min 0 min 0,0 UV-I 39 W/m 18,0 km/h (3 Bft)
18.03.2014 16:38 9,9 C 8,9 C 82 % 1012,9 hPa 0,0 l/m 0 min 0 min 0,0 UV-I 47 W/m 23,2 km/h (4 Bft)
18.03.2014 16:40 9,9 C 8,9 C 82 % 1012,9 hPa 0,0 l/m 0 min 0 min 0,0 UV-I 35 W/m 28,3 km/h (4 Bft)
18.03.2014 16:42 9,9 C 8,9 C 82 % 1012,8 hPa 0,0 l/m 0 min 0 min 0,0 UV-I 25 W/m 28,3 km/h (4 Bft)
18.03.2014 16:44 9,9 C 8,9 C 82 % 1012,9 hPa 0,0 l/m 0 min 0 min 0,0 UV-I 21 W/m 10,3 km/h (2 Bft)
18.03.2014 16:46 9,9 C 8,9 C 82 % 1012,9 hPa 0,0 l/m 0 min 0 min 0,0 UV-I 28 W/m 25,7 km/h (4 Bft)
18.03.2014 16:48 9,9 C 8,9 C 82 % 1013,0 hPa 0,0 l/m 0 min 0 min 0,0 UV-I 26 W/m 20,6 km/h (4 Bft)
18.03.2014 16:50 9,9 C 8,9 C 82 % 1012,9 hPa 0,0 l/m 0 min 0 min 0,0 UV-I 26 W/m 15,4 km/h (3 Bft)
18.03.2014 16:52 9,9 C 8,9 C 82 % 1013,0 hPa 0,0 l/m 0 min 0 min 0,0 UV-I 33 W/m 28,3 km/h (4 Bft)
18.03.2014 16:54 9,9 C 8,9 C 82 % 1013,0 hPa 0,0 l/m 0 min 0 min 0,0 UV-I 32 W/m 23,2 km/h (4 Bft)
18.03.2014 16:56 9,9 C 8,9 C 82 % 1013,1 hPa 0,0 l/m 0 min 0 min 0,0 UV-I 21 W/m 20,6 km/h (4 Bft)
18.03.2014 16:58 9,8 C 8,9 C 82 % 1013,1 hPa 0,0 l/m 0 min 0 min 0,0 UV-I 19 W/m 20,6 km/h (4 Bft)
18.03.2014 17:00 9,8 C 8,9 C 81 % 1013,0 hPa 0,0 l/m 0 min 0 min 0,0 UV-I 19 W/m 28,3 km/h (4 Bft)
18.03.2014 17:02 9,8 C 8,9 C 81 % 1013,0 hPa 0,0 l/m 0 min 0 min 0,0 UV-I 16 W/m 15,4 km/h (3 Bft)
18.03.2014 17:06 9,8 C 8,9 C 80 % 1013,1 hPa 0,0 l/m 0 min 0 min 0,0 UV-I 16 W/m 30,9 km/h (5 Bft)
18.03.2014 17:08 9,7 C 8,9 C 80 % 1013,1 hPa 0,0 l/m 0 min 0 min 0,0 UV-I 18 W/m 23,2 km/h (4 Bft)
18.03.2014 17:10 9,7 C 8,3 C 80 % 1013,1 hPa 0,0 l/m 0 min 0 min 0,0 UV-I 18 W/m 12,9 km/h (3 Bft)
18.03.2014 17:12 9,7 C 8,3 C 80 % 1013,1 hPa 0,0 l/m 0 min 0 min 0,0 UV-I 16 W/m 15,4 km/h (3 Bft)
18.03.2014 17:14 9,6 C 8,3 C 80 % 1013,2 hPa 0,0 l/m 0 min 0 min 0,0 UV-I 16 W/m 23,2 km/h (4 Bft)
18.03.2014 17:16 9,6 C 8,3 C 80 % 1013,1 hPa 0,0 l/m 0 min 0 min 0,0 UV-I 16 W/m 10,3 km/h (2 Bft)
18.03.2014 17:18 9,6 C 8,3 C 81 % 1013,1 hPa 0,0 l/m 0 min 0 min 0,0 UV-I 18 W/m 10,3 km/h (2 Bft)
18.03.2014 17:20 9,6 C 8,3 C 81 % 1013,1 hPa 0,0 l/m 0 min 0 min 0,0 UV-I 18 W/m 12,9 km/h (3 Bft)
18.03.2014 17:22 9,6 C 8,3 C 81 % 1013,0 hPa 0,0 l/m 0 min 0 min 0,0 UV-I 21 W/m 12,9 km/h (3 Bft)
18.03.2014 17:24 9,6 C 8,3 C 81 % 1013,1 hPa 0,0 l/m 0 min 0 min 0,0 UV-I 26 W/m 12,9 km/h (3 Bft)
18.03.2014 17:26 9,6 C 8,3 C 81 % 1013,0 hPa 0,0 l/m 0 min 0 min 0,0 UV-I 28 W/m 23,2 km/h (4 Bft)
18.03.2014 17:28 9,6 C 8,3 C 81 % 1013,1 hPa 0,0 l/m 0 min 0 min 0,0 UV-I 26 W/m 10,3 km/h (2 Bft)
18.03.2014 17:30 9,6 C 8,3 C 81 % 1013,1 hPa 0,0 l/m 0 min 0 min 0,0 UV-I 25 W/m 18,0 km/h (3 Bft)
18.03.2014 17:32 9,6 C 8,3 C 81 % 1013,1 hPa 0,0 l/m 0 min 0 min 0,0 UV-I 26 W/m 15,4 km/h (3 Bft)
18.03.2014 17:34 9,6 C 8,3 C 81 % 1013,1 hPa 0,0 l/m 0 min 0 min 0,0 UV-I 25 W/m 18,0 km/h (3 Bft)
18.03.2014 17:36 9,6 C 8,3 C 81 % 1013,1 hPa 0,0 l/m 0 min 0 min 0,0 UV-I 25 W/m 20,6 km/h (4 Bft)
18.03.2014 17:38 9,6 C 8,3 C 81 % 1013,1 hPa 0,0 l/m 0 min 0 min 0,0 UV-I 23 W/m 23,2 km/h (4 Bft)
18.03.2014 17:40 9,6 C 8,3 C 80 % 1013,1 hPa 0,0 l/m 0 min 0 min 0,0 UV-I 25 W/m 33,5 km/h (5 Bft)
18.03.2014 17:42 9,6 C 8,3 C 80 % 1013,1 hPa 0,0 l/m 0 min 0 min 0,0 UV-I 26 W/m 23,2 km/h (4 Bft)
18.03.2014 17:44 9,7 C 8,3 C 80 % 1013,1 hPa 0,0 l/m 0 min 0 min 0,0 UV-I 28 W/m 15,4 km/h (3 Bft)
18.03.2014 17:46 9,7 C 8,3 C 80 % 1013,1 hPa 0,0 l/m 0 min 0 min 0,0 UV-I 25 W/m 28,3 km/h (4 Bft)
18.03.2014 17:48 9,7 C 8,3 C 79 % 1013,2 hPa 0,0 l/m 0 min 0 min 0,0 UV-I 21 W/m 15,4 km/h (3 Bft)
18.03.2014 17:50 9,7 C 8,3 C 80 % 1013,2 hPa 0,0 l/m 0 min 0 min 0,0 UV-I 23 W/m 12,9 km/h (3 Bft)
18.03.2014 17:52 9,7 C 8,3 C 80 % 1013,2 hPa 0,0 l/m 0 min 0 min 0,0 UV-I 32 W/m 12,9 km/h (3 Bft)
18.03.2014 17:54 9,7 C 8,9 C 80 % 1013,2 hPa 0,0 l/m 0 min 0 min 0,0 UV-I 51 W/m 20,6 km/h (4 Bft)
18.03.2014 17:56 9,7 C 8,9 C 79 % 1013,2 hPa 0,0 l/m 0 min 0 min 0,0 UV-I 40 W/m 18,0 km/h (3 Bft)
18.03.2014 17:58 9,7 C 8,3 C 79 % 1013,1 hPa 0,0 l/m 0 min 0 min 0,0 UV-I 25 W/m 18,0 km/h (3 Bft)
18.03.2014 18:00 9,6 C 8,3 C 79 % 1013,1 hPa 0,0 l/m 0 min 0 min 0,0 UV-I 21 W/m 20,6 km/h (4 Bft)
18.03.2014 18:02 9,6 C 8,3 C 79 % 1013,0 hPa 0,0 l/m 0 min 0 min 0,0 UV-I 26 W/m 25,7 km/h (4 Bft)
18.03.2014 18:06 9,6 C 8,3 C 78 % 1013,0 hPa 0,0 l/m 0 min 0 min 0,0 UV-I 26 W/m 12,9 km/h (3 Bft)
18.03.2014 18:08 9,6 C 8,3 C 78 % 1013,1 hPa 0,0 l/m 0 min 0 min 0,0 UV-I 26 W/m 20,6 km/h (4 Bft)
18.03.2014 18:10 9,6 C 8,3 C 78 % 1013,1 hPa 0,0 l/m 0 min 0 min 0,0 UV-I 25 W/m 12,9 km/h (3 Bft)
18.03.2014 18:12 9,6 C 8,3 C 78 % 1013,1 hPa 0,0 l/m 0 min 0 min 0,0 UV-I 26 W/m 23,2 km/h (4 Bft)
18.03.2014 18:14 9,6 C 8,3 C 78 % 1013,0 hPa 0,0 l/m 0 min 0 min 0,0 UV-I 23 W/m 7,7 km/h (2 Bft)
18.03.2014 18:16 9,6 C 8,3 C 78 % 1013,0 hPa 0,0 l/m 0 min 0 min 0,0 UV-I 18 W/m 12,9 km/h (3 Bft)
18.03.2014 18:18 9,6 C 8,3 C 78 % 1013,1 hPa 0,0 l/m 0 min 0 min 0,0 UV-I 16 W/m 15,4 km/h (3 Bft)
18.03.2014 18:20 9,6 C 8,3 C 78 % 1013,1 hPa 0,0 l/m 0 min 0 min 0,0 UV-I 16 W/m 18,0 km/h (3 Bft)
18.03.2014 18:22 9,6 C 8,3 C 78 % 1013,1 hPa 0,0 l/m 0 min 0 min 0,0 UV-I 19 W/m 18,0 km/h (3 Bft)
18.03.2014 18:24 9,6 C 8,3 C 78 % 1013,1 hPa 0,0 l/m 0 min 0 min 0,0 UV-I 16 W/m 10,3 km/h (2 Bft)
18.03.2014 18:26 9,6 C 8,3 C 78 % 1013,1 hPa 0,0 l/m 0 min 0 min 0,0 UV-I 11 W/m 23,2 km/h (4 Bft)
18.03.2014 18:28 9,6 C 8,3 C 78 % 1013,1 hPa 0,0 l/m 0 min 0 min 0,0 UV-I 9 W/m 15,4 km/h (3 Bft)
18.03.2014 18:30 9,5 C 8,3 C 79 % 1013,1 hPa 0,0 l/m 0 min 0 min 0,0 UV-I 7 W/m 20,6 km/h (4 Bft)
18.03.2014 18:32 9,4 C 8,3 C 79 % 1013,1 hPa 0,0 l/m 0 min 0 min 0,0 UV-I 7 W/m 15,4 km/h (3 Bft)
18.03.2014 18:34 9,4 C 8,3 C 79 % 1013,1 hPa 0,0 l/m 0 min 0 min 0,0 UV-I 7 W/m 25,7 km/h (4 Bft)
18.03.2014 18:36 9,4 C 8,3 C 79 % 1013,1 hPa 0,0 l/m 0 min 0 min 0,0 UV-I 5 W/m 12,9 km/h (3 Bft)
18.03.2014 18:38 9,4 C 8,3 C 79 % 1013,1 hPa 0,0 l/m 0 min 0 min 0,0 UV-I 5 W/m 18,0 km/h (3 Bft)
18.03.2014 18:40 9,4 C 8,3 C 80 % 1013,2 hPa 0,0 l/m 0 min 0 min 0,0 UV-I 5 W/m 15,4 km/h (3 Bft)
18.03.2014 18:42 9,4 C 8,3 C 79 % 1013,1 hPa 0,0 l/m 0 min 0 min 0,0 UV-I 0 W/m 20,6 km/h (4 Bft)
18.03.2014 18:44 9,4 C 8,3 C 80 % 1013,1 hPa 0,0 l/m 0 min 0 min 0,0 UV-I 0 W/m 7,7 km/h (2 Bft)
18.03.2014 18:46 9,4 C 8,3 C 80 % 1013,1 hPa 0,0 l/m 0 min 0 min 0,0 UV-I 0 W/m 20,6 km/h (4 Bft)
18.03.2014 18:48 9,4 C 8,3 C 80 % 1013,1 hPa 0,0 l/m 0 min 0 min 0,0 UV-I 0 W/m 18,0 km/h (3 Bft)
18.03.2014 18:50 9,4 C 8,3 C 80 % 1013,2 hPa 0,0 l/m 0 min 0 min 0,0 UV-I 0 W/m 23,2 km/h (4 Bft)
18.03.2014 18:52 9,4 C 8,3 C 80 % 1013,1 hPa 0,0 l/m 0 min 0 min 0,0 UV-I 0 W/m 20,6 km/h (4 Bft)
18.03.2014 18:54 9,4 C 8,3 C 80 % 1013,1 hPa 0,0 l/m 0 min 0 min 0,0 UV-I 0 W/m 15,4 km/h (3 Bft)
18.03.2014 18:56 9,4 C 7,8 C 80 % 1013,2 hPa 0,0 l/m 0 min 0 min 0,0 UV-I 0 W/m 12,9 km/h (3 Bft)
18.03.2014 18:58 9,3 C 7,8 C 80 % 1013,2 hPa 0,0 l/m 0 min 0 min 0,0 UV-I 0 W/m 10,3 km/h (2 Bft)
18.03.2014 19:00 9,3 C 7,8 C 80 % 1013,2 hPa 0,0 l/m 0 min 0 min 0,0 UV-I 0 W/m 15,4 km/h (3 Bft)
18.03.2014 19:02 9,3 C 7,8 C 81 % 1013,3 hPa 0,0 l/m 0 min 0 min 0,0 UV-I 0 W/m 12,9 km/h (3 Bft)
18.03.2014 19:06 9,3 C 7,8 C 81 % 1013,4 hPa 0,0 l/m 0 min 0 min 0,0 UV-I 0 W/m 10,3 km/h (2 Bft)
18.03.2014 19:08 9,3 C 7,8 C 81 % 1013,4 hPa 0,0 l/m 0 min 0 min 0,0 UV-I 0 W/m 20,6 km/h (4 Bft)
18.03.2014 19:10 9,3 C 7,8 C 81 % 1013,3 hPa 0,0 l/m 0 min 0 min 0,0 UV-I 0 W/m 20,6 km/h (4 Bft)
18.03.2014 19:12 9,3 C 7,8 C 81 % 1013,4 hPa 0,0 l/m 0 min 0 min 0,0 UV-I 0 W/m 7,7 km/h (2 Bft)
18.03.2014 19:14 9,3 C 7,8 C 81 % 1013,4 hPa 0,0 l/m 0 min 0 min 0,0 UV-I 0 W/m 12,9 km/h (3 Bft)
18.03.2014 19:16 9,3 C 7,8 C 82 % 1013,4 hPa 0,0 l/m 0 min 2 min 0,0 UV-I 0 W/m 12,9 km/h (3 Bft)
18.03.2014 19:18 9,3 C 7,8 C 81 % 1013,3 hPa 0,0 l/m 0 min 2 min 0,0 UV-I 0 W/m 18,0 km/h (3 Bft)
18.03.2014 19:20 9,3 C 7,8 C 81 % 1013,4 hPa 0,0 l/m 0 min 0 min 0,0 UV-I 0 W/m 15,4 km/h (3 Bft)
18.03.2014 19:22 9,3 C 7,8 C 82 % 1013,3 hPa 0,0 l/m 0 min 0 min 0,0 UV-I 0 W/m 15,4 km/h (3 Bft)
18.03.2014 19:24 9,3 C 7,8 C 82 % 1013,3 hPa 0,0 l/m 0 min 0 min 0,0 UV-I 0 W/m 7,7 km/h (2 Bft)
18.03.2014 19:26 9,2 C 7,8 C 82 % 1013,3 hPa 0,0 l/m 0 min 0 min 0,0 UV-I 0 W/m 15,4 km/h (3 Bft)
18.03.2014 19:28 9,2 C 7,8 C 82 % 1013,2 hPa 0,0 l/m 0 min 0 min 0,0 UV-I 0 W/m 10,3 km/h (2 Bft)
18.03.2014 19:30 9,2 C 7,8 C 82 % 1013,3 hPa 0,0 l/m 0 min 0 min 0,0 UV-I 0 W/m 10,3 km/h (2 Bft)
18.03.2014 19:32 9,2 C 7,8 C 82 % 1013,3 hPa 0,0 l/m 0 min 0 min 0,0 UV-I 0 W/m 10,3 km/h (2 Bft)
18.03.2014 19:34 9,2 C 7,8 C 82 % 1013,2 hPa 0,0 l/m 0 min 0 min 0,0 UV-I 0 W/m 10,3 km/h (2 Bft)
18.03.2014 19:36 9,2 C 7,8 C 82 % 1013,2 hPa 0,0 l/m 0 min 0 min 0,0 UV-I 0 W/m 15,4 km/h (3 Bft)
18.03.2014 19:38 9,2 C 7,8 C 82 % 1013,1 hPa 0,0 l/m 0 min 0 min 0,0 UV-I 0 W/m 15,4 km/h (3 Bft)
18.03.2014 19:40 9,2 C 7,8 C 82 % 1013,1 hPa 0,0 l/m 0 min 0 min 0,0 UV-I 0 W/m 20,6 km/h (4 Bft)
18.03.2014 19:42 9,2 C 7,8 C 82 % 1013,1 hPa 0,0 l/m 0 min 0 min 0,0 UV-I 0 W/m 18,0 km/h (3 Bft)
18.03.2014 19:44 9,3 C 7,8 C 82 % 1013,3 hPa 0,0 l/m 0 min 0 min 0,0 UV-I 0 W/m 18,0 km/h (3 Bft)
18.03.2014 19:46 9,3 C 7,8 C 82 % 1013,3 hPa 0,0 l/m 0 min 0 min 0,0 UV-I 0 W/m 20,6 km/h (4 Bft)
18.03.2014 19:48 9,3 C 7,8 C 81 % 1013,3 hPa 0,0 l/m 0 min 0 min 0,0 UV-I 0 W/m 12,9 km/h (3 Bft)
18.03.2014 19:50 9,3 C 7,8 C 81 % 1013,3 hPa 0,0 l/m 0 min 0 min 0,0 UV-I 0 W/m 20,6 km/h (4 Bft)
18.03.2014 19:52 9,3 C 7,8 C 81 % 1013,3 hPa 0,0 l/m 0 min 0 min 0,0 UV-I 0 W/m 18,0 km/h (3 Bft)
18.03.2014 19:54 9,3 C 7,8 C 81 % 1013,4 hPa 0,0 l/m 0 min 0 min 0,0 UV-I 0 W/m 12,9 km/h (3 Bft)
18.03.2014 19:56 9,3 C 7,8 C 81 % 1013,3 hPa 0,0 l/m 0 min 0 min 0,0 UV-I 0 W/m 12,9 km/h (3 Bft)
18.03.2014 19:58 9,3 C 7,8 C 81 % 1013,3 hPa 0,0 l/m 0 min 0 min 0,0 UV-I 0 W/m 15,4 km/h (3 Bft)
18.03.2014 20:00 9,3 C 7,8 C 82 % 1013,3 hPa 0,0 l/m 0 min 0 min 0,0 UV-I 0 W/m 15,4 km/h (3 Bft)
18.03.2014 20:02 9,3 C 7,8 C 81 % 1013,4 hPa 0,0 l/m 0 min 0 min 0,0 UV-I 0 W/m 12,9 km/h (3 Bft)
18.03.2014 20:06 9,4 C 7,8 C 81 % 1013,3 hPa 0,0 l/m 0 min 0 min 0,0 UV-I 0 W/m 23,2 km/h (4 Bft)
18.03.2014 20:08 9,4 C 7,8 C 82 % 1013,4 hPa 0,0 l/m 0 min 0 min 0,0 UV-I 0 W/m 20,6 km/h (4 Bft)
18.03.2014 20:10 9,3 C 7,8 C 81 % 1013,4 hPa 0,0 l/m 0 min 0 min 0,0 UV-I 0 W/m 28,3 km/h (4 Bft)
18.03.2014 20:12 9,3 C 8,3 C 81 % 1013,4 hPa 0,0 l/m 0 min 0 min 0,0 UV-I 0 W/m 18,0 km/h (3 Bft)
18.03.2014 20:14 9,4 C 8,3 C 81 % 1013,3 hPa 0,0 l/m 0 min 0 min 0,0 UV-I 0 W/m 15,4 km/h (3 Bft)
18.03.2014 20:16 9,4 C 8,3 C 82 % 1013,3 hPa 0,0 l/m 0 min 0 min 0,0 UV-I 0 W/m 7,7 km/h (2 Bft)
18.03.2014 20:18 9,4 C 8,3 C 82 % 1013,2 hPa 0,0 l/m 0 min 0 min 0,0 UV-I 0 W/m 15,4 km/h (3 Bft)
18.03.2014 20:20 9,4 C 8,3 C 82 % 1013,2 hPa 0,0 l/m 0 min 0 min 0,0 UV-I 0 W/m 18,0 km/h (3 Bft)
18.03.2014 20:22 9,4 C 8,3 C 82 % 1013,1 hPa 0,0 l/m 0 min 0 min 0,0 UV-I 0 W/m 18,0 km/h (3 Bft)
18.03.2014 20:24 9,4 C 8,3 C 82 % 1013,3 hPa 0,0 l/m 0 min 0 min 0,0 UV-I 0 W/m 15,4 km/h (3 Bft)
18.03.2014 20:26 9,4 C 8,3 C 82 % 1013,2 hPa 0,0 l/m 0 min 0 min 0,0 UV-I 0 W/m 23,2 km/h (4 Bft)
18.03.2014 20:28 9,5 C 8,3 C 81 % 1013,3 hPa 0,0 l/m 0 min 0 min 0,0 UV-I 0 W/m 18,0 km/h (3 Bft)
18.03.2014 20:30 9,5 C 8,3 C 81 % 1013,4 hPa 0,0 l/m 0 min 0 min 0,0 UV-I 0 W/m 25,7 km/h (4 Bft)
18.03.2014 20:32 9,6 C 8,3 C 81 % 1013,3 hPa 0,0 l/m 0 min 0 min 0,0 UV-I 0 W/m 20,6 km/h (4 Bft)
18.03.2014 20:34 9,6 C 8,3 C 81 % 1013,3 hPa 0,0 l/m 0 min 0 min 0,0 UV-I 0 W/m 25,7 km/h (4 Bft)
18.03.2014 20:36 9,6 C 8,3 C 81 % 1013,3 hPa 0,0 l/m 0 min 0 min 0,0 UV-I 0 W/m 20,6 km/h (4 Bft)
18.03.2014 20:38 9,6 C 8,3 C 81 % 1013,3 hPa 0,0 l/m 0 min 0 min 0,0 UV-I 0 W/m 15,4 km/h (3 Bft)
18.03.2014 20:40 9,6 C 8,3 C 81 % 1013,3 hPa 0,0 l/m 0 min 0 min 0,0 UV-I 0 W/m 20,6 km/h (4 Bft)
18.03.2014 20:42 9,6 C 8,3 C 81 % 1013,3 hPa 0,0 l/m 0 min 2 min 0,0 UV-I 0 W/m 12,9 km/h (3 Bft)
18.03.2014 20:44 9,7 C 8,3 C 81 % 1013,3 hPa 0,0 l/m 0 min 2 min 0,0 UV-I 0 W/m 15,4 km/h (3 Bft)
18.03.2014 20:46 9,7 C 7,8 C 82 % 1013,3 hPa 0,0 l/m 0 min 2 min 0,0 UV-I 0 W/m 25,7 km/h (4 Bft)
18.03.2014 20:48 9,7 C 7,8 C 82 % 1013,4 hPa 0,0 l/m 0 min 2 min 0,0 UV-I 0 W/m 25,7 km/h (4 Bft)
18.03.2014 20:50 9,7 C 7,8 C 82 % 1013,3 hPa 0,0 l/m 0 min 0 min 0,0 UV-I 0 W/m 20,6 km/h (4 Bft)
18.03.2014 20:52 9,7 C 7,8 C 82 % 1013,3 hPa 0,0 l/m 0 min 2 min 0,0 UV-I 0 W/m 15,4 km/h (3 Bft)
18.03.2014 20:54 9,7 C 7,8 C 82 % 1013,3 hPa 0,0 l/m 0 min 2 min 0,0 UV-I 0 W/m 15,4 km/h (3 Bft)
18.03.2014 20:56 9,6 C 7,8 C 82 % 1013,4 hPa 0,0 l/m 0 min 0 min 0,0 UV-I 0 W/m 18,0 km/h (3 Bft)
18.03.2014 20:58 9,6 C 7,8 C 83 % 1013,3 hPa 0,0 l/m 0 min 0 min 0,0 UV-I 0 W/m 18,0 km/h (3 Bft)
18.03.2014 21:00 9,6 C 8,3 C 82 % 1013,3 hPa 0,0 l/m 0 min 0 min 0,0 UV-I 0 W/m 15,4 km/h (3 Bft)
18.03.2014 21:02 9,7 C 8,3 C 82 % 1013,3 hPa 0,0 l/m 0 min 0 min 0,0 UV-I 0 W/m 25,7 km/h (4 Bft)
18.03.2014 21:06 9,7 C 8,3 C 82 % 1013,2 hPa 0,0 l/m 0 min 0 min 0,0 UV-I 0 W/m 38,6 km/h (5 Bft)
18.03.2014 21:08 9,7 C 8,3 C 82 % 1013,2 hPa 0,0 l/m 0 min 0 min 0,0 UV-I 0 W/m 20,6 km/h (4 Bft)
18.03.2014 21:10 9,7 C 8,3 C 82 % 1013,3 hPa 0,0 l/m 0 min 0 min 0,0 UV-I 0 W/m 18,0 km/h (3 Bft)
18.03.2014 21:12 9,7 C 8,3 C 82 % 1013,3 hPa 0,0 l/m 0 min 0 min 0,0 UV-I 0 W/m 25,7 km/h (4 Bft)
18.03.2014 21:14 9,7 C 8,3 C 82 % 1013,4 hPa 0,0 l/m 0 min 0 min 0,0 UV-I 0 W/m 23,2 km/h (4 Bft)
18.03.2014 21:16 9,7 C 8,3 C 82 % 1013,5 hPa 0,0 l/m 0 min 2 min 0,0 UV-I 0 W/m 30,9 km/h (5 Bft)
18.03.2014 21:18 9,7 C 7,8 C 82 % 1013,6 hPa 0,0 l/m 0 min 2 min 0,0 UV-I 0 W/m 18,0 km/h (3 Bft)
18.03.2014 21:20 9,7 C 7,8 C 83 % 1013,5 hPa 0,0 l/m 0 min 2 min 0,0 UV-I 0 W/m 18,0 km/h (3 Bft)
18.03.2014 21:22 9,6 C 7,2 C 84 % 1013,4 hPa 0,0 l/m 0 min 2 min 0,0 UV-I 0 W/m 28,3 km/h (4 Bft)
18.03.2014 21:24 9,5 C 7,2 C 84 % 1013,5 hPa 0,0 l/m 0 min 2 min 0,0 UV-I 0 W/m 15,4 km/h (3 Bft)
18.03.2014 21:26 9,4 C 7,2 C 84 % 1013,4 hPa 0,0 l/m 0 min 2 min 0,0 UV-I 0 W/m 15,4 km/h (3 Bft)
18.03.2014 21:28 9,4 C 7,2 C 85 % 1013,4 hPa 0,0 l/m 0 min 2 min 0,0 UV-I 0 W/m 20,6 km/h (4 Bft)
18.03.2014 21:30 9,3 C 7,2 C 85 % 1013,4 hPa 0,0 l/m 0 min 2 min 0,0 UV-I 0 W/m 12,9 km/h (3 Bft)
18.03.2014 21:32 9,3 C 7,2 C 86 % 1013,4 hPa 0,0 l/m 0 min 0 min 0,0 UV-I 0 W/m 12,9 km/h (3 Bft)
18.03.2014 21:34 9,3 C 7,2 C 86 % 1013,5 hPa 0,0 l/m 0 min 2 min 0,0 UV-I 0 W/m 18,0 km/h (3 Bft)
18.03.2014 21:36 9,2 C 7,2 C 86 % 1013,3 hPa 0,0 l/m 0 min 0 min 0,0 UV-I 0 W/m 18,0 km/h (3 Bft)
18.03.2014 21:38 9,2 C 7,2 C 86 % 1013,4 hPa 0,0 l/m 0 min 2 min 0,0 UV-I 0 W/m 20,6 km/h (4 Bft)
18.03.2014 21:40 9,3 C 7,2 C 86 % 1013,5 hPa 0,0 l/m 0 min 0 min 0,0 UV-I 0 W/m 20,6 km/h (4 Bft)
18.03.2014 21:42 9,3 C 7,2 C 86 % 1013,6 hPa 0,0 l/m 0 min 2 min 0,0 UV-I 0 W/m 23,2 km/h (4 Bft)
18.03.2014 21:44 9,3 C 7,2 C 86 % 1013,6 hPa 0,0 l/m 0 min 2 min 0,0 UV-I 0 W/m 28,3 km/h (4 Bft)
18.03.2014 21:46 9,3 C 7,2 C 86 % 1013,6 hPa 0,0 l/m 0 min 2 min 0,0 UV-I 0 W/m 18,0 km/h (3 Bft)
18.03.2014 21:48 9,3 C 7,2 C 86 % 1013,6 hPa 0,0 l/m 0 min 2 min 0,0 UV-I 0 W/m 18,0 km/h (3 Bft)
18.03.2014 21:50 9,2 C 7,2 C 87 % 1013,7 hPa 0,2 l/m 0 min 2 min 0,0 UV-I 0 W/m 20,6 km/h (4 Bft)
18.03.2014 21:52 9,1 C 6,7 C 88 % 1013,8 hPa 0,0 l/m 0 min 2 min 0,0 UV-I 0 W/m 10,3 km/h (2 Bft)
18.03.2014 21:54 9,0 C 6,7 C 88 % 1013,8 hPa 0,2 l/m 0 min 2 min 0,0 UV-I 0 W/m 25,7 km/h (4 Bft)
18.03.2014 21:56 8,9 C 6,7 C 89 % 1013,9 hPa 0,0 l/m 0 min 2 min 0,0 UV-I 0 W/m 12,9 km/h (3 Bft)
18.03.2014 21:58 8,8 C 6,7 C 89 % 1014,0 hPa 0,4 l/m 0 min 2 min 0,0 UV-I 0 W/m 10,3 km/h (2 Bft)
18.03.2014 22:00 8,7 C 6,7 C 90 % 1013,9 hPa 0,0 l/m 0 min 2 min 0,0 UV-I 0 W/m 15,4 km/h (3 Bft)
18.03.2014 22:02 8,6 C 6,7 C 90 % 1013,9 hPa 0,0 l/m 0 min 2 min 0,0 UV-I 0 W/m 7,7 km/h (2 Bft)
18.03.2014 22:06 8,5 C 6,7 C 91 % 1013,9 hPa 0,0 l/m 0 min 2 min 0,0 UV-I 0 W/m 7,7 km/h (2 Bft)
18.03.2014 22:08 8,4 C 6,7 C 91 % 1013,8 hPa 0,0 l/m 0 min 2 min 0,0 UV-I 0 W/m 0,0 km/h (0 Bft)
18.03.2014 22:10 8,4 C 6,7 C 92 % 1014,0 hPa 0,0 l/m 0 min 0 min 0,0 UV-I 0 W/m 10,3 km/h (2 Bft)
18.03.2014 22:12 8,4 C 6,7 C 92 % 1014,0 hPa 0,0 l/m 0 min 2 min 0,0 UV-I 0 W/m 10,3 km/h (2 Bft)
18.03.2014 22:14 8,4 C 6,7 C 92 % 1014,1 hPa 0,0 l/m 0 min 0 min 0,0 UV-I 0 W/m 20,6 km/h (4 Bft)
18.03.2014 22:16 8,4 C 6,7 C 92 % 1014,2 hPa 0,0 l/m 0 min 2 min 0,0 UV-I 0 W/m 12,9 km/h (3 Bft)
18.03.2014 22:18 8,4 C 6,7 C 92 % 1014,3 hPa 0,2 l/m 0 min 2 min 0,0 UV-I 0 W/m 30,9 km/h (5 Bft)
18.03.2014 22:20 8,4 C 6,7 C 93 % 1014,2 hPa 0,0 l/m 0 min 2 min 0,0 UV-I 0 W/m 15,4 km/h (3 Bft)
18.03.2014 22:22 8,4 C 6,7 C 93 % 1014,3 hPa 0,0 l/m 0 min 2 min 0,0 UV-I 0 W/m 18,0 km/h (3 Bft)
18.03.2014 22:24 8,4 C 6,7 C 93 % 1014,4 hPa 0,0 l/m 0 min 2 min 0,0 UV-I 0 W/m 18,0 km/h (3 Bft)
18.03.2014 22:26 8,4 C 6,7 C 93 % 1014,4 hPa 0,2 l/m 0 min 2 min 0,0 UV-I 0 W/m 15,4 km/h (3 Bft)
18.03.2014 22:28 8,4 C 6,7 C 93 % 1014,4 hPa 0,0 l/m 0 min 2 min 0,0 UV-I 0 W/m 12,9 km/h (3 Bft)
18.03.2014 22:30 8,3 C 6,7 C 93 % 1014,1 hPa 0,2 l/m 0 min 2 min 0,0 UV-I 0 W/m 18,0 km/h (3 Bft)
18.03.2014 22:32 8,3 C 6,7 C 93 % 1014,3 hPa 0,0 l/m 0 min 2 min 0,0 UV-I 0 W/m 10,3 km/h (2 Bft)
18.03.2014 22:34 8,2 C 6,7 C 93 % 1014,3 hPa 0,0 l/m 0 min 2 min 0,0 UV-I 0 W/m 28,3 km/h (4 Bft)
18.03.2014 22:36 8,2 C 6,7 C 93 % 1014,4 hPa 0,0 l/m 0 min 2 min 0,0 UV-I 0 W/m 18,0 km/h (3 Bft)
18.03.2014 22:38 8,1 C 6,7 C 93 % 1014,4 hPa 0,2 l/m 0 min 2 min 0,0 UV-I 0 W/m 15,4 km/h (3 Bft)
18.03.2014 22:40 8,0 C 6,1 C 93 % 1014,4 hPa 0,0 l/m 0 min 2 min 0,0 UV-I 0 W/m 18,0 km/h (3 Bft)
18.03.2014 22:42 7,9 C 6,1 C 93 % 1014,3 hPa 0,0 l/m 0 min 2 min 0,0 UV-I 0 W/m 38,6 km/h (5 Bft)
18.03.2014 22:44 7,9 C 6,1 C 93 % 1014,1 hPa 0,0 l/m 0 min 2 min 0,0 UV-I 0 W/m 23,2 km/h (4 Bft)
18.03.2014 22:46 7,8 C 6,1 C 93 % 1014,0 hPa 0,0 l/m 0 min 0 min 0,0 UV-I 0 W/m 18,0 km/h (3 Bft)
18.03.2014 22:48 7,8 C 6,1 C 93 % 1014,1 hPa 0,0 l/m 0 min 0 min 0,0 UV-I 0 W/m 10,3 km/h (2 Bft)
18.03.2014 22:50 7,8 C 6,1 C 93 % 1014,2 hPa 0,0 l/m 0 min 0 min 0,0 UV-I 0 W/m 10,3 km/h (2 Bft)
18.03.2014 22:52 7,8 C 6,1 C 93 % 1014,2 hPa 0,0 l/m 0 min 0 min 0,0 UV-I 0 W/m 18,0 km/h (3 Bft)
18.03.2014 22:54 7,8 C 6,1 C 93 % 1014,2 hPa 0,0 l/m 0 min 0 min 0,0 UV-I 0 W/m 12,9 km/h (3 Bft)
18.03.2014 22:56 7,8 C 6,1 C 93 % 1014,0 hPa 0,0 l/m 0 min 0 min 0,0 UV-I 0 W/m 12,9 km/h (3 Bft)
18.03.2014 22:58 7,8 C 6,1 C 93 % 1014,1 hPa 0,0 l/m 0 min 0 min 0,0 UV-I 0 W/m 18,0 km/h (3 Bft)
18.03.2014 23:00 7,9 C 6,1 C 94 % 1014,1 hPa 0,0 l/m 0 min 0 min 0,0 UV-I 0 W/m 20,6 km/h (4 Bft)
18.03.2014 23:02 7,9 C 6,1 C 94 % 1014,1 hPa 0,0 l/m 0 min 0 min 0,0 UV-I 0 W/m 20,6 km/h (4 Bft)
18.03.2014 23:06 8,1 C 6,1 C 94 % 1014,3 hPa 0,0 l/m 0 min 0 min 0,0 UV-I 0 W/m 12,9 km/h (3 Bft)
18.03.2014 23:08 8,2 C 6,7 C 94 % 1014,3 hPa 0,0 l/m 0 min 0 min 0,0 UV-I 0 W/m 12,9 km/h (3 Bft)
18.03.2014 23:10 8,2 C 6,7 C 94 % 1014,4 hPa 0,0 l/m 0 min 0 min 0,0 UV-I 0 W/m 10,3 km/h (2 Bft)
18.03.2014 23:12 8,2 C 6,7 C 94 % 1014,4 hPa 0,0 l/m 0 min 0 min 0,0 UV-I 0 W/m 5,1 km/h (1 Bft)
18.03.2014 23:14 8,2 C 6,7 C 94 % 1014,5 hPa 0,0 l/m 0 min 2 min 0,0 UV-I 0 W/m 12,9 km/h (3 Bft)
18.03.2014 23:16 8,3 C 6,7 C 94 % 1014,4 hPa 0,0 l/m 0 min 0 min 0,0 UV-I 0 W/m 33,5 km/h (5 Bft)
18.03.2014 23:18 8,3 C 6,7 C 94 % 1014,4 hPa 0,0 l/m 0 min 2 min 0,0 UV-I 0 W/m 18,0 km/h (3 Bft)
18.03.2014 23:20 8,4 C 6,7 C 94 % 1014,4 hPa 0,0 l/m 0 min 2 min 0,0 UV-I 0 W/m 7,7 km/h (2 Bft)
18.03.2014 23:22 8,4 C 6,7 C 94 % 1014,4 hPa 0,0 l/m 0 min 0 min 0,0 UV-I 0 W/m 15,4 km/h (3 Bft)
18.03.2014 23:24 8,4 C 6,7 C 94 % 1014,5 hPa 0,0 l/m 0 min 2 min 0,0 UV-I 0 W/m 18,0 km/h (3 Bft)
18.03.2014 23:26 8,4 C 6,7 C 94 % 1014,6 hPa 0,0 l/m 0 min 2 min 0,0 UV-I 0 W/m 20,6 km/h (4 Bft)
18.03.2014 23:28 8,4 C 6,7 C 94 % 1014,7 hPa 0,0 l/m 0 min 2 min 0,0 UV-I 0 W/m 18,0 km/h (3 Bft)
18.03.2014 23:30 8,4 C 6,7 C 94 % 1014,9 hPa 0,2 l/m 0 min 2 min 0,0 UV-I 0 W/m 10,3 km/h (2 Bft)
18.03.2014 23:32 8,5 C 6,7 C 94 % 1014,7 hPa 0,0 l/m 0 min 2 min 0,0 UV-I 0 W/m 20,6 km/h (4 Bft)
18.03.2014 23:34 8,5 C 6,7 C 94 % 1014,8 hPa 0,2 l/m 0 min 2 min 0,0 UV-I 0 W/m 18,0 km/h (3 Bft)
18.03.2014 23:36 8,5 C 6,7 C 94 % 1014,9 hPa 0,2 l/m 0 min 2 min 0,0 UV-I 0 W/m 12,9 km/h (3 Bft)
18.03.2014 23:38 8,5 C 6,7 C 95 % 1014,9 hPa 0,0 l/m 0 min 2 min 0,0 UV-I 0 W/m 18,0 km/h (3 Bft)
18.03.2014 23:40 8,4 C 6,7 C 95 % 1014,9 hPa 0,0 l/m 0 min 2 min 0,0 UV-I 0 W/m 15,4 km/h (3 Bft)
18.03.2014 23:42 8,4 C 6,7 C 94 % 1015,0 hPa 0,2 l/m 0 min 2 min 0,0 UV-I 0 W/m 15,4 km/h (3 Bft)
18.03.2014 23:44 8,4 C 6,7 C 94 % 1015,0 hPa 0,0 l/m 0 min 2 min 0,0 UV-I 0 W/m 18,0 km/h (3 Bft)
18.03.2014 23:46 8,4 C 6,7 C 95 % 1015,0 hPa 0,4 l/m 0 min 2 min 0,0 UV-I 0 W/m 15,4 km/h (3 Bft)
18.03.2014 23:48 8,4 C 6,7 C 95 % 1015,1 hPa 0,4 l/m 0 min 2 min 0,0 UV-I 0 W/m 23,2 km/h (4 Bft)
18.03.2014 23:50 8,4 C 6,7 C 95 % 1015,1 hPa 0,4 l/m 0 min 2 min 0,0 UV-I 0 W/m 23,2 km/h (4 Bft)
18.03.2014 23:52 8,4 C 6,7 C 95 % 1015,1 hPa 0,2 l/m 0 min 2 min 0,0 UV-I 0 W/m 23,2 km/h (4 Bft)
18.03.2014 23:54 8,4 C 6,7 C 95 % 1015,0 hPa 0,2 l/m 0 min 2 min 0,0 UV-I 0 W/m 30,9 km/h (5 Bft)
18.03.2014 23:56 8,4 C 7,2 C 95 % 1015,0 hPa 0,2 l/m 0 min 2 min 0,0 UV-I 0 W/m 12,9 km/h (3 Bft)
18.03.2014 23:58 8,4 C 7,2 C 95 % 1015,1 hPa 0,0 l/m 0 min 2 min 0,0 UV-I 0 W/m 5,1 km/h (1 Bft)
_ Min-Zeit 00:00 00:00 18:06 16:00 - - - - - 00:00
Minimum _ 7,6 C 6,1 C 78 % 1012,6 hPa - - - - - 0,0 km/h (0 Bft)
_ Max-Zeit 16:06 10:48 06:06 00:00 21:58 00:00 19:16 00:00 10:46 21:06
Maximum _ 10,2 C 9,4 C 95 % 1019,0 hPa 0,4 l/m 0 min 2 min 0,0 UV-I 137 W/m 38,6 km/h
W (5 Bft)
Durchschnitt _ 9,2 C 8,0 C 85 % 1015,1 hPa #4,2 l/m #0 min. #2:16 h 0,0 UV-I 52 W/m 10,8 km/h (2 Bft)
© 2014 W. Hausmann